﻿<?xml version="1.0" encoding="utf-8"?><gpx creator="Garmin Desktop App" version="1.1" xsi:schemaLocation="http://www.topografix.com/GPX/1/1 http://www.topografix.com/GPX/1/1/gpx.xsd http://www.garmin.com/xmlschemas/WaypointExtension/v1 http://www8.garmin.com/xmlschemas/WaypointExtensionv1.xsd http://www.garmin.com/xmlschemas/TrackPointExtension/v1 http://www.garmin.com/xmlschemas/TrackPointExtensionv1.xsd http://www.garmin.com/xmlschemas/GpxExtensions/v3 http://www8.garmin.com/xmlschemas/GpxExtensionsv3.xsd http://www.garmin.com/xmlschemas/ActivityExtension/v1 http://www8.garmin.com/xmlschemas/ActivityExtensionv1.xsd http://www.garmin.com/xmlschemas/AdventuresExtensions/v1 http://www8.garmin.com/xmlschemas/AdventuresExtensionv1.xsd http://www.garmin.com/xmlschemas/PressureExtension/v1 http://www.garmin.com/xmlschemas/PressureExtensionv1.xsd http://www.garmin.com/xmlschemas/TripExtensions/v1 http://www.garmin.com/xmlschemas/TripExtensionsv1.xsd http://www.garmin.com/xmlschemas/TripMetaDataExtensions/v1 http://www.garmin.com/xmlschemas/TripMetaDataExtensionsv1.xsd http://www.garmin.com/xmlschemas/ViaPointTransportationModeExtensions/v1 http://www.garmin.com/xmlschemas/ViaPointTransportationModeExtensionsv1.xsd http://www.garmin.com/xmlschemas/CreationTimeExtension/v1 http://www.garmin.com/xmlschemas/CreationTimeExtensionsv1.xsd http://www.garmin.com/xmlschemas/AccelerationExtension/v1 http://www.garmin.com/xmlschemas/AccelerationExtensionv1.xsd http://www.garmin.com/xmlschemas/PowerExtension/v1 http://www.garmin.com/xmlschemas/PowerExtensionv1.xsd http://www.garmin.com/xmlschemas/VideoExtension/v1 http://www.garmin.com/xmlschemas/VideoExtensionv1.xsd" xmlns="http://www.topografix.com/GPX/1/1" xmlns:xsi="http://www.w3.org/2001/XMLSchema-instance" xmlns:wptx1="http://www.garmin.com/xmlschemas/WaypointExtension/v1" xmlns:gpxtrx="http://www.garmin.com/xmlschemas/GpxExtensions/v3" xmlns:gpxtpx="http://www.garmin.com/xmlschemas/TrackPointExtension/v1" xmlns:gpxx="http://www.garmin.com/xmlschemas/GpxExtensions/v3" xmlns:trp="http://www.garmin.com/xmlschemas/TripExtensions/v1" xmlns:adv="http://www.garmin.com/xmlschemas/AdventuresExtensions/v1" xmlns:prs="http://www.garmin.com/xmlschemas/PressureExtension/v1" xmlns:tmd="http://www.garmin.com/xmlschemas/TripMetaDataExtensions/v1" xmlns:vptm="http://www.garmin.com/xmlschemas/ViaPointTransportationModeExtensions/v1" xmlns:ctx="http://www.garmin.com/xmlschemas/CreationTimeExtension/v1" xmlns:gpxacc="http://www.garmin.com/xmlschemas/AccelerationExtension/v1" xmlns:gpxpx="http://www.garmin.com/xmlschemas/PowerExtension/v1" xmlns:vidx1="http://www.garmin.com/xmlschemas/VideoExtension/v1">

  <metadata>
    <link href="http://www.garmin.com">
      <text>Garmin International</text>
    </link>
    <time>2025-08-15T13:06:02Z</time>
    <bounds maxlat="45.91613095253706" maxlon="7.677653655409813" minlat="45.893261348828673" minlon="7.647530855610967" />
  </metadata>

  <trk>
    <name>gran sometta2025-08-14</name>
    <extensions>
      <gpxx:TrackExtension>
        <gpxx:DisplayColor>Red</gpxx:DisplayColor>
      </gpxx:TrackExtension>
      <gpxtrkx:TrackStatsExtension xmlns:gpxtrkx="http://www.garmin.com/xmlschemas/TrackStatsExtension/v1">
        <gpxtrkx:Distance>9603</gpxtrkx:Distance>
        <gpxtrkx:TotalElapsedTime>21435</gpxtrkx:TotalElapsedTime>
        <gpxtrkx:MovingTime>13015</gpxtrkx:MovingTime>
        <gpxtrkx:StoppedTime>8411</gpxtrkx:StoppedTime>
        <gpxtrkx:MovingSpeed>0.738</gpxtrkx:MovingSpeed>
        <gpxtrkx:MaxSpeed>2.55</gpxtrkx:MaxSpeed>
        <gpxtrkx:MaxElevation>3165.506</gpxtrkx:MaxElevation>
        <gpxtrkx:MinElevation>2293.234</gpxtrkx:MinElevation>
        <gpxtrkx:Ascent>887</gpxtrkx:Ascent>
        <gpxtrkx:Descent>875.614</gpxtrkx:Descent>
        <gpxtrkx:AvgAscentRate>0.071</gpxtrkx:AvgAscentRate>
        <gpxtrkx:MaxAscentRate>0.218</gpxtrkx:MaxAscentRate>
        <gpxtrkx:AvgDescentRate>0.073</gpxtrkx:AvgDescentRate>
        <gpxtrkx:MaxDescentRate>-0.449</gpxtrkx:MaxDescentRate>
      </gpxtrkx:TrackStatsExtension>
    </extensions>
    <trkseg>
      <trkpt lat="45.893261348828673" lon="7.647530855610967">
        <ele>2298.5999999999999</ele>
        <time>2025-08-14T07:20:59Z</time>
      </trkpt>
      <trkpt lat="45.893279118463397" lon="7.647551894187927">
        <ele>2294.5799999999999</ele>
        <time>2025-08-14T07:23:23Z</time>
      </trkpt>
      <trkpt lat="45.893315747380257" lon="7.647555163130164">
        <ele>2294.5799999999999</ele>
        <time>2025-08-14T07:24:08Z</time>
      </trkpt>
      <trkpt lat="45.893406607210636" lon="7.647552816197276">
        <ele>2294.5100000000002</ele>
        <time>2025-08-14T07:24:23Z</time>
      </trkpt>
      <trkpt lat="45.893492186442018" lon="7.647607382386923">
        <ele>2294.3200000000002</ele>
        <time>2025-08-14T07:24:32Z</time>
      </trkpt>
      <trkpt lat="45.893529318273067" lon="7.647729003801942">
        <ele>2295.25</ele>
        <time>2025-08-14T07:24:43Z</time>
      </trkpt>
      <trkpt lat="45.893540633842349" lon="7.647876022383571">
        <ele>2295.6300000000001</ele>
        <time>2025-08-14T07:24:54Z</time>
      </trkpt>
      <trkpt lat="45.893582124263048" lon="7.647996386513114">
        <ele>2297.2600000000002</ele>
        <time>2025-08-14T07:25:04Z</time>
      </trkpt>
      <trkpt lat="45.893636606633663" lon="7.648110464215279">
        <ele>2298.5</ele>
        <time>2025-08-14T07:25:15Z</time>
      </trkpt>
      <trkpt lat="45.893660746514797" lon="7.648245077580214">
        <ele>2298.73</ele>
        <time>2025-08-14T07:25:25Z</time>
      </trkpt>
      <trkpt lat="45.893683629110456" lon="7.648370638489723">
        <ele>2298.4899999999998</ele>
        <time>2025-08-14T07:25:34Z</time>
      </trkpt>
      <trkpt lat="45.893692430108786" lon="7.648514388129115">
        <ele>2298.5500000000002</ele>
        <time>2025-08-14T07:25:43Z</time>
      </trkpt>
      <trkpt lat="45.893691089004278" lon="7.648650342598558">
        <ele>2298.7399999999998</ele>
        <time>2025-08-14T07:25:52Z</time>
      </trkpt>
      <trkpt lat="45.893715228885412" lon="7.648759474977851">
        <ele>2299.6799999999998</ele>
        <time>2025-08-14T07:26:03Z</time>
      </trkpt>
      <trkpt lat="45.893707852810621" lon="7.648849412798882">
        <ele>2300.23</ele>
        <time>2025-08-14T07:26:34Z</time>
      </trkpt>
      <trkpt lat="45.893752947449684" lon="7.648967849090695">
        <ele>2301.1399999999999</ele>
        <time>2025-08-14T07:26:44Z</time>
      </trkpt>
      <trkpt lat="45.893828216940165" lon="7.649065833538771">
        <ele>2301.8000000000002</ele>
        <time>2025-08-14T07:26:54Z</time>
      </trkpt>
      <trkpt lat="45.89389493688941" lon="7.649151999503374">
        <ele>2302.0799999999999</ele>
        <time>2025-08-14T07:27:03Z</time>
      </trkpt>
      <trkpt lat="45.893940282985568" lon="7.649263562634587">
        <ele>2303.1900000000001</ele>
        <time>2025-08-14T07:27:13Z</time>
      </trkpt>
      <trkpt lat="45.894012115895748" lon="7.649346040561795">
        <ele>2304.71</ele>
        <time>2025-08-14T07:27:23Z</time>
      </trkpt>
      <trkpt lat="45.8940923307091" lon="7.64941418543458">
        <ele>2305.8400000000001</ele>
        <time>2025-08-14T07:27:33Z</time>
      </trkpt>
      <trkpt lat="45.894166845828295" lon="7.649485934525728">
        <ele>2306.9400000000001</ele>
        <time>2025-08-14T07:27:43Z</time>
      </trkpt>
      <trkpt lat="45.894251838326454" lon="7.649528933688998">
        <ele>2308.6500000000001</ele>
        <time>2025-08-14T07:27:54Z</time>
      </trkpt>
      <trkpt lat="45.894339177757502" lon="7.64958718791604">
        <ele>2310.5100000000002</ele>
        <time>2025-08-14T07:28:06Z</time>
      </trkpt>
      <trkpt lat="45.894424002617598" lon="7.649651560932398">
        <ele>2312.0599999999999</ele>
        <time>2025-08-14T07:28:19Z</time>
      </trkpt>
      <trkpt lat="45.894511928781867" lon="7.649705540388823">
        <ele>2314.0999999999999</ele>
        <time>2025-08-14T07:28:32Z</time>
      </trkpt>
      <trkpt lat="45.894597927108407" lon="7.64976060949266">
        <ele>2316.0300000000002</ele>
        <time>2025-08-14T07:28:44Z</time>
      </trkpt>
      <trkpt lat="45.894666323438287" lon="7.649828754365444">
        <ele>2317.0599999999999</ele>
        <time>2025-08-14T07:28:58Z</time>
      </trkpt>
      <trkpt lat="45.89474318549037" lon="7.649903604760766">
        <ele>2318.1700000000001</ele>
        <time>2025-08-14T07:29:08Z</time>
      </trkpt>
      <trkpt lat="45.89481602422893" lon="7.649990692734718">
        <ele>2319.5599999999999</ele>
        <time>2025-08-14T07:29:19Z</time>
      </trkpt>
      <trkpt lat="45.89488341473043" lon="7.650080127641559">
        <ele>2320.8699999999999</ele>
        <time>2025-08-14T07:29:29Z</time>
      </trkpt>
      <trkpt lat="45.89494988322258" lon="7.650172747671604">
        <ele>2321.8299999999999</ele>
        <time>2025-08-14T07:29:39Z</time>
      </trkpt>
      <trkpt lat="45.895012579858303" lon="7.650292357429862">
        <ele>2322.8400000000001</ele>
        <time>2025-08-14T07:30:06Z</time>
      </trkpt>
      <trkpt lat="45.895074941217899" lon="7.650385983288288">
        <ele>2323.8600000000001</ele>
        <time>2025-08-14T07:30:16Z</time>
      </trkpt>
      <trkpt lat="45.895141325891018" lon="7.650485895574093">
        <ele>2324.9400000000001</ele>
        <time>2025-08-14T07:30:27Z</time>
      </trkpt>
      <trkpt lat="45.895205782726407" lon="7.650579856708646">
        <ele>2326.0799999999999</ele>
        <time>2025-08-14T07:30:37Z</time>
      </trkpt>
      <trkpt lat="45.895264875143766" lon="7.65067876316607">
        <ele>2327.1199999999999</ele>
        <time>2025-08-14T07:30:47Z</time>
      </trkpt>
      <trkpt lat="45.89531977660954" lon="7.650784626603127">
        <ele>2328.4000000000001</ele>
        <time>2025-08-14T07:30:57Z</time>
      </trkpt>
      <trkpt lat="45.895369816571474" lon="7.650901637971401">
        <ele>2329.4000000000001</ele>
        <time>2025-08-14T07:31:08Z</time>
      </trkpt>
      <trkpt lat="45.895398231223226" lon="7.651030719280243">
        <ele>2331.1300000000001</ele>
        <time>2025-08-14T07:31:21Z</time>
      </trkpt>
      <trkpt lat="45.895447852090001" lon="7.651150580495596">
        <ele>2333.71</ele>
        <time>2025-08-14T07:31:35Z</time>
      </trkpt>
      <trkpt lat="45.895497472956777" lon="7.651264490559697">
        <ele>2335.3899999999999</ele>
        <time>2025-08-14T07:31:47Z</time>
      </trkpt>
      <trkpt lat="45.89556553401053" lon="7.651352165266872">
        <ele>2336.8800000000001</ele>
        <time>2025-08-14T07:31:58Z</time>
      </trkpt>
      <trkpt lat="45.895658070221543" lon="7.651379490271211">
        <ele>2337.9299999999998</ele>
        <time>2025-08-14T07:32:09Z</time>
      </trkpt>
      <trkpt lat="45.895748678594828" lon="7.651380663737655">
        <ele>2339.8899999999999</ele>
        <time>2025-08-14T07:32:22Z</time>
      </trkpt>
      <trkpt lat="45.895833754912019" lon="7.651353003457189">
        <ele>2341.9200000000001</ele>
        <time>2025-08-14T07:32:35Z</time>
      </trkpt>
      <trkpt lat="45.895916149020195" lon="7.651302460581064">
        <ele>2344.3200000000002</ele>
        <time>2025-08-14T07:32:48Z</time>
      </trkpt>
      <trkpt lat="45.89599845930934" lon="7.651245463639498">
        <ele>2345.5799999999999</ele>
        <time>2025-08-14T07:32:59Z</time>
      </trkpt>
      <trkpt lat="45.896087139844894" lon="7.651188215240836">
        <ele>2345.52</ele>
        <time>2025-08-14T07:33:09Z</time>
      </trkpt>
      <trkpt lat="45.896168360486627" lon="7.651127194985747">
        <ele>2346.0599999999999</ele>
        <time>2025-08-14T07:33:18Z</time>
      </trkpt>
      <trkpt lat="45.896245809271932" lon="7.651052428409457">
        <ele>2346.3499999999999</ele>
        <time>2025-08-14T07:33:29Z</time>
      </trkpt>
      <trkpt lat="45.896307332441211" lon="7.650963999330998">
        <ele>2346.77</ele>
        <time>2025-08-14T07:33:38Z</time>
      </trkpt>
      <trkpt lat="45.896364664658904" lon="7.650869870558381">
        <ele>2346.5500000000002</ele>
        <time>2025-08-14T07:33:47Z</time>
      </trkpt>
      <trkpt lat="45.896430714055896" lon="7.650762498378754">
        <ele>2346.6999999999998</ele>
        <time>2025-08-14T07:33:56Z</time>
      </trkpt>
      <trkpt lat="45.896513527259231" lon="7.650682283565402">
        <ele>2346.8699999999999</ele>
        <time>2025-08-14T07:34:05Z</time>
      </trkpt>
      <trkpt lat="45.896607572212815" lon="7.650629561394453">
        <ele>2346.6900000000001</ele>
        <time>2025-08-14T07:34:14Z</time>
      </trkpt>
      <trkpt lat="45.896707400679588" lon="7.650606594979763">
        <ele>2346.8499999999999</ele>
        <time>2025-08-14T07:34:23Z</time>
      </trkpt>
      <trkpt lat="45.896802116185427" lon="7.650605672970414">
        <ele>2346.96</ele>
        <time>2025-08-14T07:34:32Z</time>
      </trkpt>
      <trkpt lat="45.896900100633502" lon="7.650600224733353">
        <ele>2347.25</ele>
        <time>2025-08-14T07:34:41Z</time>
      </trkpt>
      <trkpt lat="45.896993558853865" lon="7.650608438998461">
        <ele>2347.8299999999999</ele>
        <time>2025-08-14T07:34:50Z</time>
      </trkpt>
      <trkpt lat="45.897090621292591" lon="7.650610450655222">
        <ele>2348.6500000000001</ele>
        <time>2025-08-14T07:35:00Z</time>
      </trkpt>
      <trkpt lat="45.89719120413065" lon="7.650598548352718">
        <ele>2350.8499999999999</ele>
        <time>2025-08-14T07:35:13Z</time>
      </trkpt>
      <trkpt lat="45.897282483056188" lon="7.650559488683939">
        <ele>2352.1199999999999</ele>
        <time>2025-08-14T07:35:24Z</time>
      </trkpt>
      <trkpt lat="45.897369822487235" lon="7.650510538369417">
        <ele>2353.5799999999999</ele>
        <time>2025-08-14T07:35:35Z</time>
      </trkpt>
      <trkpt lat="45.897455317899585" lon="7.650456726551056">
        <ele>2355.1399999999999</ele>
        <time>2025-08-14T07:35:45Z</time>
      </trkpt>
      <trkpt lat="45.897534610703588" lon="7.650400316342711">
        <ele>2356.5999999999999</ele>
        <time>2025-08-14T07:35:55Z</time>
      </trkpt>
      <trkpt lat="45.897617088630795" lon="7.650340721011162">
        <ele>2357.5300000000002</ele>
        <time>2025-08-14T07:36:05Z</time>
      </trkpt>
      <trkpt lat="45.897694202139974" lon="7.650283891707659">
        <ele>2358.9400000000001</ele>
        <time>2025-08-14T07:36:15Z</time>
      </trkpt>
      <trkpt lat="45.89777072891593" lon="7.650212058797479">
        <ele>2359.7800000000002</ele>
        <time>2025-08-14T07:36:24Z</time>
      </trkpt>
      <trkpt lat="45.897856894880533" lon="7.650152212008834">
        <ele>2360.25</ele>
        <time>2025-08-14T07:36:34Z</time>
      </trkpt>
      <trkpt lat="45.897942055016756" lon="7.650131508708">
        <ele>2360.8299999999999</ele>
        <time>2025-08-14T07:36:43Z</time>
      </trkpt>
      <trkpt lat="45.898032579571009" lon="7.650130167603493">
        <ele>2361.3699999999999</ele>
        <time>2025-08-14T07:36:52Z</time>
      </trkpt>
      <trkpt lat="45.898126373067498" lon="7.650163779035211">
        <ele>2361.8600000000001</ele>
        <time>2025-08-14T07:37:01Z</time>
      </trkpt>
      <trkpt lat="45.898212287575006" lon="7.650222284719348">
        <ele>2362.1599999999999</ele>
        <time>2025-08-14T07:37:10Z</time>
      </trkpt>
      <trkpt lat="45.898294933140278" lon="7.650293949991465">
        <ele>2362.5300000000002</ele>
        <time>2025-08-14T07:37:19Z</time>
      </trkpt>
      <trkpt lat="45.898373303934932" lon="7.65036016702652">
        <ele>2362.3699999999999</ele>
        <time>2025-08-14T07:37:28Z</time>
      </trkpt>
      <trkpt lat="45.898452177643776" lon="7.650422444567084">
        <ele>2362.02</ele>
        <time>2025-08-14T07:37:37Z</time>
      </trkpt>
      <trkpt lat="45.89853398501873" lon="7.650490757077932">
        <ele>2362.1300000000001</ele>
        <time>2025-08-14T07:37:46Z</time>
      </trkpt>
      <trkpt lat="45.898618809878826" lon="7.650548089295626">
        <ele>2362.5700000000002</ele>
        <time>2025-08-14T07:37:55Z</time>
      </trkpt>
      <trkpt lat="45.898704556748271" lon="7.650606343522668">
        <ele>2362.9000000000001</ele>
        <time>2025-08-14T07:38:04Z</time>
      </trkpt>
      <trkpt lat="45.898789633065462" lon="7.650662921369076">
        <ele>2363.27</ele>
        <time>2025-08-14T07:38:13Z</time>
      </trkpt>
      <trkpt lat="45.898871943354607" lon="7.650723354890943">
        <ele>2363.6199999999999</ele>
        <time>2025-08-14T07:38:22Z</time>
      </trkpt>
      <trkpt lat="45.898954924196005" lon="7.650774819776416">
        <ele>2364.4400000000001</ele>
        <time>2025-08-14T07:38:31Z</time>
      </trkpt>
      <trkpt lat="45.899035222828388" lon="7.650828799232841">
        <ele>2365.3499999999999</ele>
        <time>2025-08-14T07:38:40Z</time>
      </trkpt>
      <trkpt lat="45.899116946384311" lon="7.650893423706293">
        <ele>2366.5999999999999</ele>
        <time>2025-08-14T07:38:51Z</time>
      </trkpt>
      <trkpt lat="45.89920143596828" lon="7.650943547487259">
        <ele>2368.3099999999999</ele>
        <time>2025-08-14T07:39:01Z</time>
      </trkpt>
      <trkpt lat="45.899285841733217" lon="7.650990318506956">
        <ele>2369.71</ele>
        <time>2025-08-14T07:39:11Z</time>
      </trkpt>
      <trkpt lat="45.899369660764933" lon="7.651044633239508">
        <ele>2371.4499999999998</ele>
        <time>2025-08-14T07:39:23Z</time>
      </trkpt>
      <trkpt lat="45.899451049044728" lon="7.65109458938241">
        <ele>2373.1100000000001</ele>
        <time>2025-08-14T07:39:35Z</time>
      </trkpt>
      <trkpt lat="45.899542327970266" lon="7.651148652657867">
        <ele>2374.8699999999999</ele>
        <time>2025-08-14T07:39:47Z</time>
      </trkpt>
      <trkpt lat="45.899626649916172" lon="7.651207242161036">
        <ele>2376.29</ele>
        <time>2025-08-14T07:39:58Z</time>
      </trkpt>
      <trkpt lat="45.899707786738873" lon="7.651281924918294">
        <ele>2377.5100000000002</ele>
        <time>2025-08-14T07:40:10Z</time>
      </trkpt>
      <trkpt lat="45.899779284372926" lon="7.651352249085903">
        <ele>2378.6599999999999</ele>
        <time>2025-08-14T07:40:21Z</time>
      </trkpt>
      <trkpt lat="45.899856565520167" lon="7.651424584910274">
        <ele>2380.0300000000002</ele>
        <time>2025-08-14T07:40:32Z</time>
      </trkpt>
      <trkpt lat="45.899939881637692" lon="7.65148158185184">
        <ele>2382.1700000000001</ele>
        <time>2025-08-14T07:40:45Z</time>
      </trkpt>
      <trkpt lat="45.900029568001628" lon="7.651523156091571">
        <ele>2384.25</ele>
        <time>2025-08-14T07:41:00Z</time>
      </trkpt>
      <trkpt lat="45.900120344012976" lon="7.651560371741653">
        <ele>2386.1999999999998</ele>
        <time>2025-08-14T07:41:13Z</time>
      </trkpt>
      <trkpt lat="45.900209108367562" lon="7.651603873819113">
        <ele>2388.23</ele>
        <time>2025-08-14T07:41:27Z</time>
      </trkpt>
      <trkpt lat="45.900299632921815" lon="7.651654751971364">
        <ele>2389.9000000000001</ele>
        <time>2025-08-14T07:41:40Z</time>
      </trkpt>
      <trkpt lat="45.900390660390258" lon="7.651707138866186">
        <ele>2391.7199999999998</ele>
        <time>2025-08-14T07:41:53Z</time>
      </trkpt>
      <trkpt lat="45.900476155802608" lon="7.651762794703245">
        <ele>2393.3400000000001</ele>
        <time>2025-08-14T07:42:04Z</time>
      </trkpt>
      <trkpt lat="45.900560729205608" lon="7.651826580986381">
        <ele>2394.98</ele>
        <time>2025-08-14T07:42:16Z</time>
      </trkpt>
      <trkpt lat="45.900638932362199" lon="7.651889445260167">
        <ele>2396.5100000000002</ele>
        <time>2025-08-14T07:42:27Z</time>
      </trkpt>
      <trkpt lat="45.900719650089741" lon="7.651958931237459">
        <ele>2398.2199999999998</ele>
        <time>2025-08-14T07:42:39Z</time>
      </trkpt>
      <trkpt lat="45.900798188522458" lon="7.652013665065169">
        <ele>2399.6100000000001</ele>
        <time>2025-08-14T07:42:50Z</time>
      </trkpt>
      <trkpt lat="45.900875637307763" lon="7.652073511853814">
        <ele>2400.9499999999998</ele>
        <time>2025-08-14T07:43:01Z</time>
      </trkpt>
      <trkpt lat="45.900942021980882" lon="7.652140818536282">
        <ele>2402.3000000000002</ele>
        <time>2025-08-14T07:43:12Z</time>
      </trkpt>
      <trkpt lat="45.90102206915617" lon="7.652220949530602">
        <ele>2403.0300000000002</ele>
        <time>2025-08-14T07:43:23Z</time>
      </trkpt>
      <trkpt lat="45.901096751913428" lon="7.652298817411065">
        <ele>2404.1100000000001</ele>
        <time>2025-08-14T07:43:33Z</time>
      </trkpt>
      <trkpt lat="45.901163220405579" lon="7.652380624786019">
        <ele>2405.0100000000002</ele>
        <time>2025-08-14T07:43:42Z</time>
      </trkpt>
      <trkpt lat="45.901230527088046" lon="7.652472825720906">
        <ele>2405.52</ele>
        <time>2025-08-14T07:43:52Z</time>
      </trkpt>
      <trkpt lat="45.901296744123101" lon="7.65256779268384">
        <ele>2406.23</ele>
        <time>2025-08-14T07:44:02Z</time>
      </trkpt>
      <trkpt lat="45.901362374424934" lon="7.652655383571982">
        <ele>2407.1599999999999</ele>
        <time>2025-08-14T07:44:12Z</time>
      </trkpt>
      <trkpt lat="45.901428507640958" lon="7.652749679982662">
        <ele>2407.8800000000001</ele>
        <time>2025-08-14T07:44:23Z</time>
      </trkpt>
      <trkpt lat="45.901501011103392" lon="7.652822602540255">
        <ele>2408.9899999999998</ele>
        <time>2025-08-14T07:44:33Z</time>
      </trkpt>
      <trkpt lat="45.901572424918413" lon="7.652905499562621">
        <ele>2410.2199999999998</ele>
        <time>2025-08-14T07:44:43Z</time>
      </trkpt>
      <trkpt lat="45.901637552306056" lon="7.653001975268126">
        <ele>2411.4699999999998</ele>
        <time>2025-08-14T07:44:54Z</time>
      </trkpt>
      <trkpt lat="45.901697063818574" lon="7.653092248365283">
        <ele>2412.9899999999998</ele>
        <time>2025-08-14T07:45:06Z</time>
      </trkpt>
      <trkpt lat="45.901752132922411" lon="7.653175732120872">
        <ele>2415.0599999999999</ele>
        <time>2025-08-14T07:45:23Z</time>
      </trkpt>
      <trkpt lat="45.90182488784194" lon="7.653265837579966">
        <ele>2418.1199999999999</ele>
        <time>2025-08-14T07:45:38Z</time>
      </trkpt>
      <trkpt lat="45.90189378708601" lon="7.653352171182632">
        <ele>2419.8899999999999</ele>
        <time>2025-08-14T07:45:50Z</time>
      </trkpt>
      <trkpt lat="45.901926895603538" lon="7.653477564454079">
        <ele>2422.0500000000002</ele>
        <time>2025-08-14T07:46:05Z</time>
      </trkpt>
      <trkpt lat="45.901957154273987" lon="7.653593486174941">
        <ele>2422.7399999999998</ele>
        <time>2025-08-14T07:46:17Z</time>
      </trkpt>
      <trkpt lat="45.902002919465303" lon="7.653708904981613">
        <ele>2424.3499999999999</ele>
        <time>2025-08-14T07:46:31Z</time>
      </trkpt>
      <trkpt lat="45.902063604444265" lon="7.653799094259739">
        <ele>2426.1100000000001</ele>
        <time>2025-08-14T07:46:43Z</time>
      </trkpt>
      <trkpt lat="45.90210635215044" lon="7.65391493216157">
        <ele>2428.3600000000001</ele>
        <time>2025-08-14T07:46:57Z</time>
      </trkpt>
      <trkpt lat="45.902149099856615" lon="7.654023561626673">
        <ele>2430.3400000000001</ele>
        <time>2025-08-14T07:47:10Z</time>
      </trkpt>
      <trkpt lat="45.902202324941754" lon="7.654119953513145">
        <ele>2432.46</ele>
        <time>2025-08-14T07:47:23Z</time>
      </trkpt>
      <trkpt lat="45.902243815362453" lon="7.654236797243357">
        <ele>2434.6799999999998</ele>
        <time>2025-08-14T07:47:37Z</time>
      </trkpt>
      <trkpt lat="45.902306092903018" lon="7.654338134452701">
        <ele>2436.4400000000001</ele>
        <time>2025-08-14T07:47:49Z</time>
      </trkpt>
      <trkpt lat="45.90235554613173" lon="7.65444022603333">
        <ele>2438.6199999999999</ele>
        <time>2025-08-14T07:48:03Z</time>
      </trkpt>
      <trkpt lat="45.902410615235567" lon="7.654538126662374">
        <ele>2440.21</ele>
        <time>2025-08-14T07:48:14Z</time>
      </trkpt>
      <trkpt lat="45.902474904432893" lon="7.654611887410283">
        <ele>2442.04</ele>
        <time>2025-08-14T07:48:24Z</time>
      </trkpt>
      <trkpt lat="45.902558220550418" lon="7.65466989018023">
        <ele>2443.5300000000002</ele>
        <time>2025-08-14T07:48:35Z</time>
      </trkpt>
      <trkpt lat="45.902648158371449" lon="7.6547060161829">
        <ele>2444.9699999999998</ele>
        <time>2025-08-14T07:48:46Z</time>
      </trkpt>
      <trkpt lat="45.90272543951869" lon="7.654748931527138">
        <ele>2446.4899999999998</ele>
        <time>2025-08-14T07:48:57Z</time>
      </trkpt>
      <trkpt lat="45.90281680226326" lon="7.654778268188238">
        <ele>2447.2800000000002</ele>
        <time>2025-08-14T07:49:07Z</time>
      </trkpt>
      <trkpt lat="45.902906153351068" lon="7.654811963438988">
        <ele>2448.4699999999998</ele>
        <time>2025-08-14T07:49:17Z</time>
      </trkpt>
      <trkpt lat="45.902993408963084" lon="7.654844736680389">
        <ele>2449.4899999999998</ele>
        <time>2025-08-14T07:49:27Z</time>
      </trkpt>
      <trkpt lat="45.903078401461244" lon="7.654882622882724">
        <ele>2450.6700000000001</ele>
        <time>2025-08-14T07:49:37Z</time>
      </trkpt>
      <trkpt lat="45.903167081996799" lon="7.654914977028966">
        <ele>2452.04</ele>
        <time>2025-08-14T07:49:47Z</time>
      </trkpt>
      <trkpt lat="45.903248135000467" lon="7.654967615380883">
        <ele>2453.04</ele>
        <time>2025-08-14T07:49:57Z</time>
      </trkpt>
      <trkpt lat="45.903328182175756" lon="7.655031904578209">
        <ele>2454.1599999999999</ele>
        <time>2025-08-14T07:50:07Z</time>
      </trkpt>
      <trkpt lat="45.903399009257555" lon="7.655112370848656">
        <ele>2454.8699999999999</ele>
        <time>2025-08-14T07:50:17Z</time>
      </trkpt>
      <trkpt lat="45.903473356738687" lon="7.655202224850655">
        <ele>2455.2199999999998</ele>
        <time>2025-08-14T07:50:27Z</time>
      </trkpt>
      <trkpt lat="45.903544016182423" lon="7.655290234833956">
        <ele>2455.5799999999999</ele>
        <time>2025-08-14T07:50:37Z</time>
      </trkpt>
      <trkpt lat="45.903627499938011" lon="7.655368940904737">
        <ele>2455.8899999999999</ele>
        <time>2025-08-14T07:50:46Z</time>
      </trkpt>
      <trkpt lat="45.903703356161714" lon="7.655445132404566">
        <ele>2456.2600000000002</ele>
        <time>2025-08-14T07:50:55Z</time>
      </trkpt>
      <trkpt lat="45.903770495206118" lon="7.655535656958818">
        <ele>2456.8299999999999</ele>
        <time>2025-08-14T07:51:04Z</time>
      </trkpt>
      <trkpt lat="45.903843585401773" lon="7.655626935884357">
        <ele>2457.0100000000002</ele>
        <time>2025-08-14T07:51:13Z</time>
      </trkpt>
      <trkpt lat="45.9039147477597" lon="7.65570673160255">
        <ele>2456.9499999999998</ele>
        <time>2025-08-14T07:51:21Z</time>
      </trkpt>
      <trkpt lat="45.903980964794755" lon="7.655789377167821">
        <ele>2456.5599999999999</ele>
        <time>2025-08-14T07:51:29Z</time>
      </trkpt>
      <trkpt lat="45.904078111052513" lon="7.655833633616567">
        <ele>2456.4499999999998</ele>
        <time>2025-08-14T07:51:37Z</time>
      </trkpt>
      <trkpt lat="45.90418690815568" lon="7.655871771275997">
        <ele>2456.3699999999999</ele>
        <time>2025-08-14T07:51:46Z</time>
      </trkpt>
      <trkpt lat="45.904282042756677" lon="7.655921308323741">
        <ele>2456.5300000000002</ele>
        <time>2025-08-14T07:51:55Z</time>
      </trkpt>
      <trkpt lat="45.904376842081547" lon="7.655961625277996">
        <ele>2457.23</ele>
        <time>2025-08-14T07:52:04Z</time>
      </trkpt>
      <trkpt lat="45.904460828751326" lon="7.656008312478662">
        <ele>2458.1500000000001</ele>
        <time>2025-08-14T07:52:16Z</time>
      </trkpt>
      <trkpt lat="45.904536936432123" lon="7.656091460958123">
        <ele>2458.9899999999998</ele>
        <time>2025-08-14T07:52:25Z</time>
      </trkpt>
      <trkpt lat="45.904613211750984" lon="7.656183997169137">
        <ele>2460.75</ele>
        <time>2025-08-14T07:52:36Z</time>
      </trkpt>
      <trkpt lat="45.90467750094831" lon="7.656282735988498">
        <ele>2462.6500000000001</ele>
        <time>2025-08-14T07:52:48Z</time>
      </trkpt>
      <trkpt lat="45.904743298888206" lon="7.656376278027892">
        <ele>2464.46</ele>
        <time>2025-08-14T07:53:00Z</time>
      </trkpt>
      <trkpt lat="45.904804151505232" lon="7.656477112323046">
        <ele>2466.2800000000002</ele>
        <time>2025-08-14T07:53:12Z</time>
      </trkpt>
      <trkpt lat="45.904865674674511" lon="7.656578030437231">
        <ele>2468.3000000000002</ele>
        <time>2025-08-14T07:53:23Z</time>
      </trkpt>
      <trkpt lat="45.904918145388365" lon="7.656670231372118">
        <ele>2470.0300000000002</ele>
        <time>2025-08-14T07:53:34Z</time>
      </trkpt>
      <trkpt lat="45.904963072389364" lon="7.656783722341061">
        <ele>2471.79</ele>
        <time>2025-08-14T07:53:46Z</time>
      </trkpt>
      <trkpt lat="45.90500732883811" lon="7.656894028186798">
        <ele>2473.5300000000002</ele>
        <time>2025-08-14T07:53:58Z</time>
      </trkpt>
      <trkpt lat="45.905050076544285" lon="7.657003328204155">
        <ele>2475.04</ele>
        <time>2025-08-14T07:54:10Z</time>
      </trkpt>
      <trkpt lat="45.905087292194366" lon="7.65710424631834">
        <ele>2476.8299999999999</ele>
        <time>2025-08-14T07:54:21Z</time>
      </trkpt>
      <trkpt lat="45.905117550864816" lon="7.657221676781774">
        <ele>2478.3699999999999</ele>
        <time>2025-08-14T07:54:33Z</time>
      </trkpt>
      <trkpt lat="45.905153760686517" lon="7.657336089760065">
        <ele>2480.3099999999999</ele>
        <time>2025-08-14T07:54:44Z</time>
      </trkpt>
      <trkpt lat="45.905195670202374" lon="7.657442120835185">
        <ele>2481.8699999999999</ele>
        <time>2025-08-14T07:54:55Z</time>
      </trkpt>
      <trkpt lat="45.905239675194025" lon="7.657555108889937">
        <ele>2483.21</ele>
        <time>2025-08-14T07:55:07Z</time>
      </trkpt>
      <trkpt lat="45.905288709327579" lon="7.657670611515641">
        <ele>2484.7600000000002</ele>
        <time>2025-08-14T07:55:19Z</time>
      </trkpt>
      <trkpt lat="45.9053376596421" lon="7.657775552943349">
        <ele>2486.8200000000002</ele>
        <time>2025-08-14T07:55:31Z</time>
      </trkpt>
      <trkpt lat="45.905377473682165" lon="7.657892983406782">
        <ele>2488.2199999999998</ele>
        <time>2025-08-14T07:55:43Z</time>
      </trkpt>
      <trkpt lat="45.905418209731579" lon="7.658008905127645">
        <ele>2489.5500000000002</ele>
        <time>2025-08-14T07:55:54Z</time>
      </trkpt>
      <trkpt lat="45.905450899153948" lon="7.658120803534985">
        <ele>2491.23</ele>
        <time>2025-08-14T07:56:05Z</time>
      </trkpt>
      <trkpt lat="45.905496077612042" lon="7.658225577324629">
        <ele>2492.5799999999999</ele>
        <time>2025-08-14T07:56:16Z</time>
      </trkpt>
      <trkpt lat="45.905536059290171" lon="7.658341582864523">
        <ele>2493.8400000000001</ele>
        <time>2025-08-14T07:56:27Z</time>
      </trkpt>
      <trkpt lat="45.905592050403357" lon="7.658441914245486">
        <ele>2495.52</ele>
        <time>2025-08-14T07:56:39Z</time>
      </trkpt>
      <trkpt lat="45.905647119507194" lon="7.658532354980707">
        <ele>2497.0700000000002</ele>
        <time>2025-08-14T07:56:50Z</time>
      </trkpt>
      <trkpt lat="45.905702607706189" lon="7.658621622249484">
        <ele>2499.1100000000001</ele>
        <time>2025-08-14T07:57:01Z</time>
      </trkpt>
      <trkpt lat="45.905754240229726" lon="7.658718684688211">
        <ele>2500.8000000000002</ele>
        <time>2025-08-14T07:57:12Z</time>
      </trkpt>
      <trkpt lat="45.905815009027719" lon="7.658819938078523">
        <ele>2502.6399999999999</ele>
        <time>2025-08-14T07:57:24Z</time>
      </trkpt>
      <trkpt lat="45.905878711491823" lon="7.658905517309904">
        <ele>2504.2199999999998</ele>
        <time>2025-08-14T07:57:35Z</time>
      </trkpt>
      <trkpt lat="45.905930176377296" lon="7.659002915024757">
        <ele>2505.9000000000001</ele>
        <time>2025-08-14T07:57:46Z</time>
      </trkpt>
      <trkpt lat="45.905981389805675" lon="7.659102575853467">
        <ele>2507.6300000000001</ele>
        <time>2025-08-14T07:57:59Z</time>
      </trkpt>
      <trkpt lat="45.906028160825372" lon="7.659195112064481">
        <ele>2509.2199999999998</ele>
        <time>2025-08-14T07:58:10Z</time>
      </trkpt>
      <trkpt lat="45.906083732843399" lon="7.659290079027414">
        <ele>2510.5700000000002</ele>
        <time>2025-08-14T07:58:21Z</time>
      </trkpt>
      <trkpt lat="45.906139807775617" lon="7.659378005191684">
        <ele>2511.5999999999999</ele>
        <time>2025-08-14T07:58:31Z</time>
      </trkpt>
      <trkpt lat="45.90619957074523" lon="7.659469032660127">
        <ele>2513.3600000000001</ele>
        <time>2025-08-14T07:58:43Z</time>
      </trkpt>
      <trkpt lat="45.906264362856746" lon="7.659549247473478">
        <ele>2514.8400000000001</ele>
        <time>2025-08-14T07:58:54Z</time>
      </trkpt>
      <trkpt lat="45.906328149139881" lon="7.65963583253324">
        <ele>2516.3000000000002</ele>
        <time>2025-08-14T07:59:06Z</time>
      </trkpt>
      <trkpt lat="45.906403586268425" lon="7.659708755090833">
        <ele>2517.8899999999999</ele>
        <time>2025-08-14T07:59:18Z</time>
      </trkpt>
      <trkpt lat="45.906467791646719" lon="7.659796513617039">
        <ele>2520.1100000000001</ele>
        <time>2025-08-14T07:59:32Z</time>
      </trkpt>
      <trkpt lat="45.906543647870421" lon="7.659873878583312">
        <ele>2522.23</ele>
        <time>2025-08-14T07:59:45Z</time>
      </trkpt>
      <trkpt lat="45.906612882390618" lon="7.659946717321873">
        <ele>2524.1900000000001</ele>
        <time>2025-08-14T07:59:59Z</time>
      </trkpt>
      <trkpt lat="45.906693432480097" lon="7.660008072853088">
        <ele>2525.7600000000002</ele>
        <time>2025-08-14T08:00:12Z</time>
      </trkpt>
      <trkpt lat="45.906781191006303" lon="7.660063309594989">
        <ele>2527.5799999999999</ele>
        <time>2025-08-14T08:00:25Z</time>
      </trkpt>
      <trkpt lat="45.906863417476416" lon="7.660112595185638">
        <ele>2530.1799999999998</ele>
        <time>2025-08-14T08:00:39Z</time>
      </trkpt>
      <trkpt lat="45.90694623067975" lon="7.660170597955585">
        <ele>2533.27</ele>
        <time>2025-08-14T08:00:55Z</time>
      </trkpt>
      <trkpt lat="45.907031306996942" lon="7.660234803333879">
        <ele>2535.4000000000001</ele>
        <time>2025-08-14T08:01:09Z</time>
      </trkpt>
      <trkpt lat="45.90711479075253" lon="7.660294063389301">
        <ele>2538.29</ele>
        <time>2025-08-14T08:01:25Z</time>
      </trkpt>
      <trkpt lat="45.907190060243011" lon="7.660374026745558">
        <ele>2539.5999999999999</ele>
        <time>2025-08-14T08:01:38Z</time>
      </trkpt>
      <trkpt lat="45.907254936173558" lon="7.660472765564919">
        <ele>2540.5999999999999</ele>
        <time>2025-08-14T08:01:50Z</time>
      </trkpt>
      <trkpt lat="45.907313274219632" lon="7.660572845488787">
        <ele>2542.1799999999998</ele>
        <time>2025-08-14T08:02:02Z</time>
      </trkpt>
      <trkpt lat="45.907367672771215" lon="7.660681726410985">
        <ele>2543.6700000000001</ele>
        <time>2025-08-14T08:02:15Z</time>
      </trkpt>
      <trkpt lat="45.90741042047739" lon="7.660792116075754">
        <ele>2545.7600000000002</ele>
        <time>2025-08-14T08:02:31Z</time>
      </trkpt>
      <trkpt lat="45.907373372465372" lon="7.660886831581593">
        <ele>2546.7399999999998</ele>
        <time>2025-08-14T08:03:13Z</time>
      </trkpt>
      <trkpt lat="45.907389046624303" lon="7.660879204049707">
        <ele>2547.0300000000002</ele>
        <time>2025-08-14T08:04:21Z</time>
      </trkpt>
      <trkpt lat="45.907319225370884" lon="7.660969812422991">
        <ele>2548.0900000000001</ele>
        <time>2025-08-14T08:05:31Z</time>
      </trkpt>
      <trkpt lat="45.907224928960204" lon="7.660978529602289">
        <ele>2550.8200000000002</ele>
        <time>2025-08-14T08:05:45Z</time>
      </trkpt>
      <trkpt lat="45.907136583700776" lon="7.661044914275408">
        <ele>2552.8200000000002</ele>
        <time>2025-08-14T08:05:58Z</time>
      </trkpt>
      <trkpt lat="45.907047400251031" lon="7.661100821569562">
        <ele>2554.3099999999999</ele>
        <time>2025-08-14T08:06:13Z</time>
      </trkpt>
      <trkpt lat="45.906976070255041" lon="7.661185897886753">
        <ele>2556.2399999999998</ele>
        <time>2025-08-14T08:06:28Z</time>
      </trkpt>
      <trkpt lat="45.906911194324493" lon="7.661293437704444">
        <ele>2558.4000000000001</ele>
        <time>2025-08-14T08:06:43Z</time>
      </trkpt>
      <trkpt lat="45.906880851835012" lon="7.661415813490748">
        <ele>2561.7600000000002</ele>
        <time>2025-08-14T08:07:03Z</time>
      </trkpt>
      <trkpt lat="45.906871045008302" lon="7.661557383835316">
        <ele>2564.3299999999999</ele>
        <time>2025-08-14T08:07:21Z</time>
      </trkpt>
      <trkpt lat="45.906846737489104" lon="7.66167439520359">
        <ele>2566.25</ele>
        <time>2025-08-14T08:07:35Z</time>
      </trkpt>
      <trkpt lat="45.906859980896115" lon="7.661799034103751">
        <ele>2568.3499999999999</ele>
        <time>2025-08-14T08:07:51Z</time>
      </trkpt>
      <trkpt lat="45.906892083585262" lon="7.661909507587552">
        <ele>2570.1100000000001</ele>
        <time>2025-08-14T08:08:05Z</time>
      </trkpt>
      <trkpt lat="45.906899711117148" lon="7.662032805383205">
        <ele>2572.4000000000001</ele>
        <time>2025-08-14T08:08:20Z</time>
      </trkpt>
      <trkpt lat="45.906900968402624" lon="7.662155264988542">
        <ele>2575.6399999999999</ele>
        <time>2025-08-14T08:08:36Z</time>
      </trkpt>
      <trkpt lat="45.906921084970236" lon="7.662277724593878">
        <ele>2578.1799999999998</ele>
        <time>2025-08-14T08:08:52Z</time>
      </trkpt>
      <trkpt lat="45.906957127153873" lon="7.662386521697044">
        <ele>2580.1900000000001</ele>
        <time>2025-08-14T08:09:06Z</time>
      </trkpt>
      <trkpt lat="45.906985206529498" lon="7.662503030151129">
        <ele>2582.5799999999999</ele>
        <time>2025-08-14T08:09:21Z</time>
      </trkpt>
      <trkpt lat="45.9070058260113" lon="7.662627501413226">
        <ele>2584.4400000000001</ele>
        <time>2025-08-14T08:09:36Z</time>
      </trkpt>
      <trkpt lat="45.907046226784587" lon="7.662742920219898">
        <ele>2585.8800000000001</ele>
        <time>2025-08-14T08:09:49Z</time>
      </trkpt>
      <trkpt lat="45.907083358615637" lon="7.662857584655285">
        <ele>2587.7800000000002</ele>
        <time>2025-08-14T08:10:02Z</time>
      </trkpt>
      <trkpt lat="45.907105067744851" lon="7.662986749783158">
        <ele>2589.9499999999998</ele>
        <time>2025-08-14T08:10:15Z</time>
      </trkpt>
      <trkpt lat="45.907138427719474" lon="7.663106946274638">
        <ele>2591.2199999999998</ele>
        <time>2025-08-14T08:10:27Z</time>
      </trkpt>
      <trkpt lat="45.907181426882744" lon="7.663170313462615">
        <ele>2592.3400000000001</ele>
        <time>2025-08-14T08:11:05Z</time>
      </trkpt>
      <trkpt lat="45.907215205952525" lon="7.663205601274967">
        <ele>2592.4499999999998</ele>
        <time>2025-08-14T08:13:52Z</time>
      </trkpt>
      <trkpt lat="45.907259881496429" lon="7.663315404206514">
        <ele>2593.3000000000002</ele>
        <time>2025-08-14T08:14:03Z</time>
      </trkpt>
      <trkpt lat="45.907267676666379" lon="7.663440210744739">
        <ele>2594.1300000000001</ele>
        <time>2025-08-14T08:14:19Z</time>
      </trkpt>
      <trkpt lat="45.907321237027645" lon="7.663536434993148">
        <ele>2594.9200000000001</ele>
        <time>2025-08-14T08:14:30Z</time>
      </trkpt>
      <trkpt lat="45.907378820702434" lon="7.663640286773443">
        <ele>2596.5300000000002</ele>
        <time>2025-08-14T08:14:41Z</time>
      </trkpt>
      <trkpt lat="45.90745585039258" lon="7.663731398060918">
        <ele>2597.6500000000001</ele>
        <time>2025-08-14T08:14:53Z</time>
      </trkpt>
      <trkpt lat="45.907531371340156" lon="7.663809768855572">
        <ele>2598.6100000000001</ele>
        <time>2025-08-14T08:15:04Z</time>
      </trkpt>
      <trkpt lat="45.907576717436314" lon="7.663928875699639">
        <ele>2599.8000000000002</ele>
        <time>2025-08-14T08:15:16Z</time>
      </trkpt>
      <trkpt lat="45.90761317871511" lon="7.664047731086612">
        <ele>2601.4099999999999</ele>
        <time>2025-08-14T08:15:28Z</time>
      </trkpt>
      <trkpt lat="45.907673193141818" lon="7.664149906486273">
        <ele>2602.7399999999998</ele>
        <time>2025-08-14T08:15:41Z</time>
      </trkpt>
      <trkpt lat="45.907715102657676" lon="7.66426607966423">
        <ele>2604.8699999999999</ele>
        <time>2025-08-14T08:15:55Z</time>
      </trkpt>
      <trkpt lat="45.907759694382548" lon="7.664375212043524">
        <ele>2606.6500000000001</ele>
        <time>2025-08-14T08:16:09Z</time>
      </trkpt>
      <trkpt lat="45.907835802063346" lon="7.664449391886592">
        <ele>2609.02</ele>
        <time>2025-08-14T08:16:25Z</time>
      </trkpt>
      <trkpt lat="45.907909898087382" lon="7.664535725489259">
        <ele>2612.4899999999998</ele>
        <time>2025-08-14T08:16:44Z</time>
      </trkpt>
      <trkpt lat="45.907976701855659" lon="7.664618622511625">
        <ele>2615.5300000000002</ele>
        <time>2025-08-14T08:17:00Z</time>
      </trkpt>
      <trkpt lat="45.908055994659662" lon="7.66469749622047">
        <ele>2616.8299999999999</ele>
        <time>2025-08-14T08:17:13Z</time>
      </trkpt>
      <trkpt lat="45.908127995207906" lon="7.664781147614121">
        <ele>2617.2399999999998</ele>
        <time>2025-08-14T08:17:24Z</time>
      </trkpt>
      <trkpt lat="45.908214077353477" lon="7.664813585579395">
        <ele>2617.0999999999999</ele>
        <time>2025-08-14T08:17:35Z</time>
      </trkpt>
      <trkpt lat="45.908302757889032" lon="7.664840659126639">
        <ele>2616.4499999999998</ele>
        <time>2025-08-14T08:17:45Z</time>
      </trkpt>
      <trkpt lat="45.908389175310731" lon="7.664877623319626">
        <ele>2617.6900000000001</ele>
        <time>2025-08-14T08:17:57Z</time>
      </trkpt>
      <trkpt lat="45.908462684601545" lon="7.664947947487235">
        <ele>2620.0900000000001</ele>
        <time>2025-08-14T08:18:12Z</time>
      </trkpt>
      <trkpt lat="45.90853963047266" lon="7.665024222806096">
        <ele>2621.9400000000001</ele>
        <time>2025-08-14T08:18:26Z</time>
      </trkpt>
      <trkpt lat="45.908573241904378" lon="7.665154309943318">
        <ele>2623.46</ele>
        <time>2025-08-14T08:18:37Z</time>
      </trkpt>
      <trkpt lat="45.908563015982509" lon="7.665241230279207">
        <ele>2624.29</ele>
        <time>2025-08-14T08:19:13Z</time>
      </trkpt>
      <trkpt lat="45.908665442839265" lon="7.665254389867187">
        <ele>2624.6700000000001</ele>
        <time>2025-08-14T08:20:41Z</time>
      </trkpt>
      <trkpt lat="45.908714225515723" lon="7.665353296324611">
        <ele>2625.48</ele>
        <time>2025-08-14T08:21:02Z</time>
      </trkpt>
      <trkpt lat="45.908801145851612" lon="7.665390847250819">
        <ele>2626.1799999999998</ele>
        <time>2025-08-14T08:21:14Z</time>
      </trkpt>
      <trkpt lat="45.908883959054947" lon="7.665428565815091">
        <ele>2627.71</ele>
        <time>2025-08-14T08:21:28Z</time>
      </trkpt>
      <trkpt lat="45.908952942118049" lon="7.665449855849147">
        <ele>2628.4099999999999</ele>
        <time>2025-08-14T08:21:48Z</time>
      </trkpt>
      <trkpt lat="45.909049166366458" lon="7.665420603007078">
        <ele>2629.46</ele>
        <time>2025-08-14T08:22:00Z</time>
      </trkpt>
      <trkpt lat="45.909137930721045" lon="7.665396127849817">
        <ele>2631.1199999999999</ele>
        <time>2025-08-14T08:22:11Z</time>
      </trkpt>
      <trkpt lat="45.9092300478369" lon="7.665373999625444">
        <ele>2632.4299999999998</ele>
        <time>2025-08-14T08:22:23Z</time>
      </trkpt>
      <trkpt lat="45.909328535199165" lon="7.665379699319601">
        <ele>2633.2600000000002</ele>
        <time>2025-08-14T08:22:36Z</time>
      </trkpt>
      <trkpt lat="45.909383352845907" lon="7.665284397080541">
        <ele>2633.3699999999999</ele>
        <time>2025-08-14T08:22:47Z</time>
      </trkpt>
      <trkpt lat="45.909460298717022" lon="7.665198314934969">
        <ele>2631.3499999999999</ele>
        <time>2025-08-14T08:22:57Z</time>
      </trkpt>
      <trkpt lat="45.909539004787803" lon="7.665123045444489">
        <ele>2631.1999999999998</ele>
        <time>2025-08-14T08:23:07Z</time>
      </trkpt>
      <trkpt lat="45.909620728343725" lon="7.665081722661853">
        <ele>2630.4000000000001</ele>
        <time>2025-08-14T08:23:18Z</time>
      </trkpt>
      <trkpt lat="45.909716114401817" lon="7.665081722661853">
        <ele>2628.73</ele>
        <time>2025-08-14T08:23:28Z</time>
      </trkpt>
      <trkpt lat="45.909805800765753" lon="7.665080297738314">
        <ele>2628.1300000000001</ele>
        <time>2025-08-14T08:23:38Z</time>
      </trkpt>
      <trkpt lat="45.909838238731027" lon="7.665002681314945">
        <ele>2628.73</ele>
        <time>2025-08-14T08:26:28Z</time>
      </trkpt>
      <trkpt lat="45.909913424402475" lon="7.664903104305267">
        <ele>2630.6900000000001</ele>
        <time>2025-08-14T08:26:41Z</time>
      </trkpt>
      <trkpt lat="45.910000177100301" lon="7.664863206446171">
        <ele>2632.52</ele>
        <time>2025-08-14T08:26:54Z</time>
      </trkpt>
      <trkpt lat="45.910071171820164" lon="7.664788942784071">
        <ele>2634.4299999999998</ele>
        <time>2025-08-14T08:27:07Z</time>
      </trkpt>
      <trkpt lat="45.910156834870577" lon="7.664768993854523">
        <ele>2636.2600000000002</ele>
        <time>2025-08-14T08:27:21Z</time>
      </trkpt>
      <trkpt lat="45.910238893702626" lon="7.664820961654186">
        <ele>2638.9000000000001</ele>
        <time>2025-08-14T08:27:38Z</time>
      </trkpt>
      <trkpt lat="45.910327406600118" lon="7.664844682440162">
        <ele>2641.3400000000001</ele>
        <time>2025-08-14T08:27:55Z</time>
      </trkpt>
      <trkpt lat="45.910411141812801" lon="7.664881898090243">
        <ele>2643.5599999999999</ele>
        <time>2025-08-14T08:28:13Z</time>
      </trkpt>
      <trkpt lat="45.910496637225151" lon="7.664860608056188">
        <ele>2646.5700000000002</ele>
        <time>2025-08-14T08:28:32Z</time>
      </trkpt>
      <trkpt lat="45.910575510933995" lon="7.664840575307608">
        <ele>2649.6900000000001</ele>
        <time>2025-08-14T08:28:51Z</time>
      </trkpt>
      <trkpt lat="45.910617420449853" lon="7.664951384067535">
        <ele>2651.9200000000001</ele>
        <time>2025-08-14T08:29:11Z</time>
      </trkpt>
      <trkpt lat="45.910695539787412" lon="7.664917102083564">
        <ele>2654.7600000000002</ele>
        <time>2025-08-14T08:29:30Z</time>
      </trkpt>
      <trkpt lat="45.910740299150348" lon="7.665031850337982">
        <ele>2657.6900000000001</ele>
        <time>2025-08-14T08:29:49Z</time>
      </trkpt>
      <trkpt lat="45.910767372697592" lon="7.665163613855839">
        <ele>2660.23</ele>
        <time>2025-08-14T08:30:09Z</time>
      </trkpt>
      <trkpt lat="45.91079025529325" lon="7.665292443707585">
        <ele>2664.0799999999999</ele>
        <time>2025-08-14T08:30:30Z</time>
      </trkpt>
      <trkpt lat="45.910801151767373" lon="7.665431080386043">
        <ele>2667.1399999999999</ele>
        <time>2025-08-14T08:30:50Z</time>
      </trkpt>
      <trkpt lat="45.910818250849843" lon="7.665561335161328">
        <ele>2669.0700000000002</ele>
        <time>2025-08-14T08:31:07Z</time>
      </trkpt>
      <trkpt lat="45.910878013819456" lon="7.665676586329937">
        <ele>2671.4299999999998</ele>
        <time>2025-08-14T08:31:25Z</time>
      </trkpt>
      <trkpt lat="45.91093978844583" lon="7.665773816406727">
        <ele>2673.9899999999998</ele>
        <time>2025-08-14T08:31:42Z</time>
      </trkpt>
      <trkpt lat="45.911007598042488" lon="7.6658702082932">
        <ele>2676.6300000000001</ele>
        <time>2025-08-14T08:32:01Z</time>
      </trkpt>
      <trkpt lat="45.911067863926291" lon="7.66597774811089">
        <ele>2678.5999999999999</ele>
        <time>2025-08-14T08:32:17Z</time>
      </trkpt>
      <trkpt lat="45.91112351976335" lon="7.666099369525909">
        <ele>2682.3800000000001</ele>
        <time>2025-08-14T08:32:37Z</time>
      </trkpt>
      <trkpt lat="45.911193005740643" lon="7.666193582117558">
        <ele>2684.8000000000002</ele>
        <time>2025-08-14T08:32:55Z</time>
      </trkpt>
      <trkpt lat="45.911254109814763" lon="7.666284190490842">
        <ele>2687.3400000000001</ele>
        <time>2025-08-14T08:33:14Z</time>
      </trkpt>
      <trkpt lat="45.911281686276197" lon="7.666420061141253">
        <ele>2690.3400000000001</ele>
        <time>2025-08-14T08:33:32Z</time>
      </trkpt>
      <trkpt lat="45.911308256909251" lon="7.66655039973557">
        <ele>2693.5999999999999</ele>
        <time>2025-08-14T08:33:49Z</time>
      </trkpt>
      <trkpt lat="45.911320494487882" lon="7.666646288707852">
        <ele>2695.6399999999999</ele>
        <time>2025-08-14T08:35:22Z</time>
      </trkpt>
      <trkpt lat="45.911306412890553" lon="7.66661049798131">
        <ele>2695.4299999999998</ele>
        <time>2025-08-14T08:36:29Z</time>
      </trkpt>
      <trkpt lat="45.911390315741301" lon="7.666700268164277">
        <ele>2698.6599999999999</ele>
        <time>2025-08-14T08:37:08Z</time>
      </trkpt>
      <trkpt lat="45.911463322117925" lon="7.66679473221302">
        <ele>2702.4400000000001</ele>
        <time>2025-08-14T08:37:29Z</time>
      </trkpt>
      <trkpt lat="45.9115319699049" lon="7.666870001703501">
        <ele>2706.2399999999998</ele>
        <time>2025-08-14T08:37:54Z</time>
      </trkpt>
      <trkpt lat="45.911592738702893" lon="7.666961951181293">
        <ele>2709.9299999999998</ele>
        <time>2025-08-14T08:38:17Z</time>
      </trkpt>
      <trkpt lat="45.911663817241788" lon="7.667041076347232">
        <ele>2713.7399999999998</ele>
        <time>2025-08-14T08:38:42Z</time>
      </trkpt>
      <trkpt lat="45.911744786426425" lon="7.667112741619349">
        <ele>2717.3600000000001</ele>
        <time>2025-08-14T08:39:05Z</time>
      </trkpt>
      <trkpt lat="45.911820894107223" lon="7.66718415543437">
        <ele>2720.77</ele>
        <time>2025-08-14T08:39:27Z</time>
      </trkpt>
      <trkpt lat="45.911901779472828" lon="7.667252384126186">
        <ele>2724.0300000000002</ele>
        <time>2025-08-14T08:39:51Z</time>
      </trkpt>
      <trkpt lat="45.91195902787149" lon="7.667371993884444">
        <ele>2726.96</ele>
        <time>2025-08-14T08:40:13Z</time>
      </trkpt>
      <trkpt lat="45.912025664001703" lon="7.66747341491282">
        <ele>2729.8800000000001</ele>
        <time>2025-08-14T08:40:34Z</time>
      </trkpt>
      <trkpt lat="45.912109734490514" lon="7.66748271882534">
        <ele>2735.4000000000001</ele>
        <time>2025-08-14T08:41:01Z</time>
      </trkpt>
      <trkpt lat="45.912175700068474" lon="7.667422788217664">
        <ele>2740.77</ele>
        <time>2025-08-14T08:41:30Z</time>
      </trkpt>
      <trkpt lat="45.912239151075482" lon="7.667456986382604">
        <ele>2743.6999999999998</ele>
        <time>2025-08-14T08:41:55Z</time>
      </trkpt>
      <trkpt lat="45.912293465808034" lon="7.667452208697796">
        <ele>2746.6599999999999</ele>
        <time>2025-08-14T08:42:16Z</time>
      </trkpt>
      <trkpt lat="45.912359012290835" lon="7.667541392147541">
        <ele>2750.0999999999999</ele>
        <time>2025-08-14T08:42:43Z</time>
      </trkpt>
      <trkpt lat="45.912404526025057" lon="7.667648596689105">
        <ele>2753.6900000000001</ele>
        <time>2025-08-14T08:43:08Z</time>
      </trkpt>
      <trkpt lat="45.912462109699845" lon="7.667717495933175">
        <ele>2758.9200000000001</ele>
        <time>2025-08-14T08:43:41Z</time>
      </trkpt>
      <trkpt lat="45.912525979802012" lon="7.667697882279754">
        <ele>2763.8699999999999</ele>
        <time>2025-08-14T08:44:13Z</time>
      </trkpt>
      <trkpt lat="45.91258549131453" lon="7.6676972117275">
        <ele>2769.48</ele>
        <time>2025-08-14T08:44:52Z</time>
      </trkpt>
      <trkpt lat="45.912648774683475" lon="7.667802823707461">
        <ele>2774.0999999999999</ele>
        <time>2025-08-14T08:45:23Z</time>
      </trkpt>
      <trkpt lat="45.912685403600335" lon="7.667920086532831">
        <ele>2776.5100000000002</ele>
        <time>2025-08-14T08:45:53Z</time>
      </trkpt>
      <trkpt lat="45.912766959518194" lon="7.668008599430323">
        <ele>2780.73</ele>
        <time>2025-08-14T08:46:22Z</time>
      </trkpt>
      <trkpt lat="45.912824040278792" lon="7.668102644383907">
        <ele>2785.0900000000001</ele>
        <time>2025-08-14T08:46:54Z</time>
      </trkpt>
      <trkpt lat="45.912896962836385" lon="7.668172130361199">
        <ele>2790.1100000000001</ele>
        <time>2025-08-14T08:47:29Z</time>
      </trkpt>
      <trkpt lat="45.91294658370316" lon="7.668268857523799">
        <ele>2794.29</ele>
        <time>2025-08-14T08:47:57Z</time>
      </trkpt>
      <trkpt lat="45.913030570372939" lon="7.668282771483064">
        <ele>2798.5100000000002</ele>
        <time>2025-08-14T08:49:17Z</time>
      </trkpt>
      <trkpt lat="45.913021937012672" lon="7.668269611895084">
        <ele>2799.3000000000002</ele>
        <time>2025-08-14T08:51:08Z</time>
      </trkpt>
      <trkpt lat="45.913015650585294" lon="7.668274473398924">
        <ele>2798.5500000000002</ele>
        <time>2025-08-14T08:53:12Z</time>
      </trkpt>
      <trkpt lat="45.913003999739885" lon="7.66827623359859">
        <ele>2799.04</ele>
        <time>2025-08-14T08:55:14Z</time>
      </trkpt>
      <trkpt lat="45.913058901205659" lon="7.66831680200994">
        <ele>2800.8400000000001</ele>
        <time>2025-08-14T08:56:08Z</time>
      </trkpt>
      <trkpt lat="45.913120005279779" lon="7.668414367362857">
        <ele>2805.21</ele>
        <time>2025-08-14T08:56:32Z</time>
      </trkpt>
      <trkpt lat="45.913171889260411" lon="7.6685122679919">
        <ele>2810.6199999999999</ele>
        <time>2025-08-14T08:57:01Z</time>
      </trkpt>
      <trkpt lat="45.913255373016" lon="7.668570522218943">
        <ele>2815.4699999999998</ele>
        <time>2025-08-14T08:57:32Z</time>
      </trkpt>
      <trkpt lat="45.913313962519169" lon="7.668658867478371">
        <ele>2818.73</ele>
        <time>2025-08-14T08:57:59Z</time>
      </trkpt>
      <trkpt lat="45.913342293351889" lon="7.668771604076028">
        <ele>2823.27</ele>
        <time>2025-08-14T08:58:29Z</time>
      </trkpt>
      <trkpt lat="45.913373390212655" lon="7.668798258528113">
        <ele>2825.5</ele>
        <time>2025-08-14T08:58:46Z</time>
      </trkpt>
      <trkpt lat="45.913404151797295" lon="7.668840000405908">
        <ele>2828.25</ele>
        <time>2025-08-14T08:59:04Z</time>
      </trkpt>
      <trkpt lat="45.913441199809313" lon="7.668873444199562">
        <ele>2830.0900000000001</ele>
        <time>2025-08-14T08:59:17Z</time>
      </trkpt>
      <trkpt lat="45.913476906716824" lon="7.668950222432613">
        <ele>2832.25</ele>
        <time>2025-08-14T08:59:31Z</time>
      </trkpt>
      <trkpt lat="45.913503561168909" lon="7.668999172747135">
        <ele>2834.7199999999998</ele>
        <time>2025-08-14T08:59:45Z</time>
      </trkpt>
      <trkpt lat="45.913559636101127" lon="7.66905952244997">
        <ele>2837.3200000000002</ele>
        <time>2025-08-14T09:00:03Z</time>
      </trkpt>
      <trkpt lat="45.913604563102126" lon="7.669146526604891">
        <ele>2839.6599999999999</ele>
        <time>2025-08-14T09:00:22Z</time>
      </trkpt>
      <trkpt lat="45.913671534508467" lon="7.669190699234605">
        <ele>2842.0100000000002</ele>
        <time>2025-08-14T09:00:35Z</time>
      </trkpt>
      <trkpt lat="45.913699278607965" lon="7.669248702004552">
        <ele>2843.6799999999998</ele>
        <time>2025-08-14T09:00:48Z</time>
      </trkpt>
      <trkpt lat="45.913757951930165" lon="7.669285330921412">
        <ele>2845.0100000000002</ele>
        <time>2025-08-14T09:01:00Z</time>
      </trkpt>
      <trkpt lat="45.913818636909127" lon="7.669316763058305">
        <ele>2846.5300000000002</ele>
        <time>2025-08-14T09:01:12Z</time>
      </trkpt>
      <trkpt lat="45.91387202963233" lon="7.669346099719405">
        <ele>2848.04</ele>
        <time>2025-08-14T09:01:23Z</time>
      </trkpt>
      <trkpt lat="45.91393313370645" lon="7.669361438602209">
        <ele>2849.54</ele>
        <time>2025-08-14T09:01:35Z</time>
      </trkpt>
      <trkpt lat="45.913984095677733" lon="7.669406784698367">
        <ele>2851.4200000000001</ele>
        <time>2025-08-14T09:01:48Z</time>
      </trkpt>
      <trkpt lat="45.914026172831655" lon="7.669470235705376">
        <ele>2853.5100000000002</ele>
        <time>2025-08-14T09:02:03Z</time>
      </trkpt>
      <trkpt lat="45.914073279127479" lon="7.669523293152452">
        <ele>2857.23</ele>
        <time>2025-08-14T09:02:21Z</time>
      </trkpt>
      <trkpt lat="45.914146285504103" lon="7.669555312022567">
        <ele>2859.2600000000002</ele>
        <time>2025-08-14T09:02:35Z</time>
      </trkpt>
      <trkpt lat="45.914173945784569" lon="7.669618092477322">
        <ele>2861.5599999999999</ele>
        <time>2025-08-14T09:02:50Z</time>
      </trkpt>
      <trkpt lat="45.914227170869708" lon="7.669711969792843">
        <ele>2864.9299999999998</ele>
        <time>2025-08-14T09:03:10Z</time>
      </trkpt>
      <trkpt lat="45.914234714582562" lon="7.669744743034244">
        <ele>2866.5599999999999</ele>
        <time>2025-08-14T09:03:21Z</time>
      </trkpt>
      <trkpt lat="45.914258100092411" lon="7.669816743582487">
        <ele>2869.02</ele>
        <time>2025-08-14T09:03:37Z</time>
      </trkpt>
      <trkpt lat="45.914336135610938" lon="7.669878350570798">
        <ele>2871.6599999999999</ele>
        <time>2025-08-14T09:04:05Z</time>
      </trkpt>
      <trkpt lat="45.914407800883055" lon="7.669937778264284">
        <ele>2874.1700000000001</ele>
        <time>2025-08-14T09:04:24Z</time>
      </trkpt>
      <trkpt lat="45.914502767845988" lon="7.669961666688323">
        <ele>2876.6999999999998</ele>
        <time>2025-08-14T09:04:45Z</time>
      </trkpt>
      <trkpt lat="45.914572170004249" lon="7.670045318081975">
        <ele>2877.5999999999999</ele>
        <time>2025-08-14T09:04:59Z</time>
      </trkpt>
      <trkpt lat="45.91456294991076" lon="7.670059483498335">
        <ele>2879.1199999999999</ele>
        <time>2025-08-14T09:15:39Z</time>
      </trkpt>
      <trkpt lat="45.914573511108756" lon="7.670066943392158">
        <ele>2880.6999999999998</ele>
        <time>2025-08-14T09:16:19Z</time>
      </trkpt>
      <trkpt lat="45.914554987102747" lon="7.670033751055598">
        <ele>2881.4699999999998</ele>
        <time>2025-08-14T09:18:11Z</time>
      </trkpt>
      <trkpt lat="45.914573427289724" lon="7.670024614781141">
        <ele>2882.3600000000001</ele>
        <time>2025-08-14T09:21:10Z</time>
      </trkpt>
      <trkpt lat="45.914669064804912" lon="7.669988069683313">
        <ele>2883.1100000000001</ele>
        <time>2025-08-14T09:21:34Z</time>
      </trkpt>
      <trkpt lat="45.914771407842636" lon="7.669993517920375">
        <ele>2886.2800000000002</ele>
        <time>2025-08-14T09:21:55Z</time>
      </trkpt>
      <trkpt lat="45.914877271279693" lon="7.670013550668955">
        <ele>2890.2199999999998</ele>
        <time>2025-08-14T09:22:19Z</time>
      </trkpt>
      <trkpt lat="45.914965700358152" lon="7.670038947835565">
        <ele>2895.1500000000001</ele>
        <time>2025-08-14T09:22:46Z</time>
      </trkpt>
      <trkpt lat="45.91505010612309" lon="7.670066356658936">
        <ele>2900.23</ele>
        <time>2025-08-14T09:23:18Z</time>
      </trkpt>
      <trkpt lat="45.9151307400316" lon="7.670105248689652">
        <ele>2904.6700000000001</ele>
        <time>2025-08-14T09:23:48Z</time>
      </trkpt>
      <trkpt lat="45.91520793735981" lon="7.670198958367109">
        <ele>2908.1500000000001</ele>
        <time>2025-08-14T09:24:12Z</time>
      </trkpt>
      <trkpt lat="45.915270382538438" lon="7.670304151251912">
        <ele>2912.3600000000001</ele>
        <time>2025-08-14T09:24:37Z</time>
      </trkpt>
      <trkpt lat="45.915329894050956" lon="7.670387886464596">
        <ele>2915.6999999999998</ele>
        <time>2025-08-14T09:25:01Z</time>
      </trkpt>
      <trkpt lat="45.915387226268649" lon="7.670492492616177">
        <ele>2919.4699999999998</ele>
        <time>2025-08-14T09:25:27Z</time>
      </trkpt>
      <trkpt lat="45.915420670062304" lon="7.670584190636873">
        <ele>2922.0500000000002</ele>
        <time>2025-08-14T09:25:50Z</time>
      </trkpt>
      <trkpt lat="45.915444390848279" lon="7.670698100700975">
        <ele>2926.6300000000001</ele>
        <time>2025-08-14T09:26:18Z</time>
      </trkpt>
      <trkpt lat="45.915449252352118" lon="7.670771274715662">
        <ele>2929.8299999999999</ele>
        <time>2025-08-14T09:26:47Z</time>
      </trkpt>
      <trkpt lat="45.915469201281667" lon="7.670824332162738">
        <ele>2933.1500000000001</ele>
        <time>2025-08-14T09:27:14Z</time>
      </trkpt>
      <trkpt lat="45.915512703359127" lon="7.67090504989028">
        <ele>2938.0300000000002</ele>
        <time>2025-08-14T09:27:44Z</time>
      </trkpt>
      <trkpt lat="45.915577495470643" lon="7.670956933870912">
        <ele>2942.9200000000001</ele>
        <time>2025-08-14T09:28:16Z</time>
      </trkpt>
      <trkpt lat="45.915652345865965" lon="7.67099934630096">
        <ele>2949.21</ele>
        <time>2025-08-14T09:29:07Z</time>
      </trkpt>
      <trkpt lat="45.915727531537414" lon="7.671014936640859">
        <ele>2955.3000000000002</ele>
        <time>2025-08-14T09:29:48Z</time>
      </trkpt>
      <trkpt lat="45.915806069970131" lon="7.670979481190443">
        <ele>2959.9000000000001</ele>
        <time>2025-08-14T09:30:36Z</time>
      </trkpt>
      <trkpt lat="45.915864575654268" lon="7.671040249988437">
        <ele>2964.46</ele>
        <time>2025-08-14T09:31:02Z</time>
      </trkpt>
      <trkpt lat="45.915950909256935" lon="7.671104120090604">
        <ele>2967.8499999999999</ele>
        <time>2025-08-14T09:31:27Z</time>
      </trkpt>
      <trkpt lat="45.915976976975799" lon="7.671033879742026">
        <ele>2971.2600000000002</ele>
        <time>2025-08-14T09:31:57Z</time>
      </trkpt>
      <trkpt lat="45.915995333343744" lon="7.670951569452882">
        <ele>2972.7199999999998</ele>
        <time>2025-08-14T09:33:49Z</time>
      </trkpt>
      <trkpt lat="45.91600731946528" lon="7.670925920829177">
        <ele>2974.2399999999998</ele>
        <time>2025-08-14T09:37:39Z</time>
      </trkpt>
      <trkpt lat="45.916011929512024" lon="7.670977804809809">
        <ele>2974</ele>
        <time>2025-08-14T09:39:05Z</time>
      </trkpt>
      <trkpt lat="45.915989298373461" lon="7.671010242775083">
        <ele>2975.1199999999999</ele>
        <time>2025-08-14T09:40:41Z</time>
      </trkpt>
      <trkpt lat="45.9159648232162" lon="7.671086266636848">
        <ele>2973.4899999999998</ele>
        <time>2025-08-14T09:40:56Z</time>
      </trkpt>
      <trkpt lat="45.915977898985147" lon="7.671198332682252">
        <ele>2976.8099999999999</ele>
        <time>2025-08-14T09:41:15Z</time>
      </trkpt>
      <trkpt lat="45.916001871228218" lon="7.67129891552031">
        <ele>2981.27</ele>
        <time>2025-08-14T09:41:48Z</time>
      </trkpt>
      <trkpt lat="45.915972366929054" lon="7.671395558863878">
        <ele>2985.02</ele>
        <time>2025-08-14T09:42:15Z</time>
      </trkpt>
      <trkpt lat="45.91600245796144" lon="7.671473426744342">
        <ele>2988.27</ele>
        <time>2025-08-14T09:42:39Z</time>
      </trkpt>
      <trkpt lat="45.915979659184813" lon="7.671580463647842">
        <ele>2990.8800000000001</ele>
        <time>2025-08-14T09:43:25Z</time>
      </trkpt>
      <trkpt lat="45.916002793237567" lon="7.671702587977052">
        <ele>2994.25</ele>
        <time>2025-08-14T09:43:47Z</time>
      </trkpt>
      <trkpt lat="45.915985275059938" lon="7.671831836923957">
        <ele>2994.4400000000001</ele>
        <time>2025-08-14T09:44:01Z</time>
      </trkpt>
      <trkpt lat="45.915986197069287" lon="7.671976592391729">
        <ele>2997.7800000000002</ele>
        <time>2025-08-14T09:44:21Z</time>
      </trkpt>
      <trkpt lat="45.915960799902678" lon="7.672110116109252">
        <ele>3002.5700000000002</ele>
        <time>2025-08-14T09:44:47Z</time>
      </trkpt>
      <trkpt lat="45.916005307808518" lon="7.672179182991386">
        <ele>3006.6399999999999</ele>
        <time>2025-08-14T09:45:20Z</time>
      </trkpt>
      <trkpt lat="45.915959626436234" lon="7.672296529635787">
        <ele>3011.0100000000002</ele>
        <time>2025-08-14T09:45:50Z</time>
      </trkpt>
      <trkpt lat="45.916049480438232" lon="7.6723338291049">
        <ele>3014.5900000000001</ele>
        <time>2025-08-14T09:46:19Z</time>
      </trkpt>
      <trkpt lat="45.91613095253706" lon="7.672391915693879">
        <ele>3017.71</ele>
        <time>2025-08-14T09:46:43Z</time>
      </trkpt>
      <trkpt lat="45.916084684431553" lon="7.672496186569333">
        <ele>3020.4000000000001</ele>
        <time>2025-08-14T09:47:04Z</time>
      </trkpt>
      <trkpt lat="45.916021568700671" lon="7.672576820477843">
        <ele>3021.8499999999999</ele>
        <time>2025-08-14T09:47:23Z</time>
      </trkpt>
      <trkpt lat="45.916016204282641" lon="7.672675810754299">
        <ele>3024.6799999999998</ele>
        <time>2025-08-14T09:47:44Z</time>
      </trkpt>
      <trkpt lat="45.916033303365111" lon="7.672752756625414">
        <ele>3028.6199999999999</ele>
        <time>2025-08-14T09:48:09Z</time>
      </trkpt>
      <trkpt lat="45.915976893156767" lon="7.672864235937595">
        <ele>3028.8400000000001</ele>
        <time>2025-08-14T09:48:22Z</time>
      </trkpt>
      <trkpt lat="45.915952334180474" lon="7.672983929514885">
        <ele>3030.6399999999999</ele>
        <time>2025-08-14T09:48:41Z</time>
      </trkpt>
      <trkpt lat="45.915899695828557" lon="7.673092978075147">
        <ele>3032.6700000000001</ele>
        <time>2025-08-14T09:48:57Z</time>
      </trkpt>
      <trkpt lat="45.915859965607524" lon="7.673214096575975">
        <ele>3034</ele>
        <time>2025-08-14T09:49:14Z</time>
      </trkpt>
      <trkpt lat="45.915857199579477" lon="7.673328761011362">
        <ele>3037.2800000000002</ele>
        <time>2025-08-14T09:49:33Z</time>
      </trkpt>
      <trkpt lat="45.915851164609194" lon="7.673451891168952">
        <ele>3038.73</ele>
        <time>2025-08-14T09:49:50Z</time>
      </trkpt>
      <trkpt lat="45.915845381096005" lon="7.673584660515189">
        <ele>3041.52</ele>
        <time>2025-08-14T09:50:10Z</time>
      </trkpt>
      <trkpt lat="45.915850410237908" lon="7.673702342435718">
        <ele>3045.4400000000001</ele>
        <time>2025-08-14T09:50:33Z</time>
      </trkpt>
      <trkpt lat="45.915861641988158" lon="7.673843745142222">
        <ele>3048.8600000000001</ele>
        <time>2025-08-14T09:51:13Z</time>
      </trkpt>
      <trkpt lat="45.91581822372973" lon="7.673972826451063">
        <ele>3050.9299999999998</ele>
        <time>2025-08-14T09:51:31Z</time>
      </trkpt>
      <trkpt lat="45.915771117433906" lon="7.674097968265414">
        <ele>3052.25</ele>
        <time>2025-08-14T09:51:49Z</time>
      </trkpt>
      <trkpt lat="45.915715796872973" lon="7.674211710691452">
        <ele>3053.3400000000001</ele>
        <time>2025-08-14T09:52:04Z</time>
      </trkpt>
      <trkpt lat="45.915658632293344" lon="7.674317490309477">
        <ele>3056.29</ele>
        <time>2025-08-14T09:52:25Z</time>
      </trkpt>
      <trkpt lat="45.91563013382256" lon="7.674355041235685">
        <ele>3059.0999999999999</ele>
        <time>2025-08-14T09:57:00Z</time>
      </trkpt>
      <trkpt lat="45.915608508512378" lon="7.674351185560226">
        <ele>3058.7199999999998</ele>
        <time>2025-08-14T09:59:22Z</time>
      </trkpt>
      <trkpt lat="45.915545392781496" lon="7.674395106732845">
        <ele>3058.3899999999999</ele>
        <time>2025-08-14T09:59:57Z</time>
      </trkpt>
      <trkpt lat="45.915497532114387" lon="7.674515806138516">
        <ele>3061.8099999999999</ele>
        <time>2025-08-14T10:00:17Z</time>
      </trkpt>
      <trkpt lat="45.915429806336761" lon="7.674601385369897">
        <ele>3063.4299999999998</ele>
        <time>2025-08-14T10:00:33Z</time>
      </trkpt>
      <trkpt lat="45.915364678949118" lon="7.674692664295435">
        <ele>3064.7800000000002</ele>
        <time>2025-08-14T10:00:49Z</time>
      </trkpt>
      <trkpt lat="45.915290666744113" lon="7.674768939614296">
        <ele>3067.04</ele>
        <time>2025-08-14T10:01:06Z</time>
      </trkpt>
      <trkpt lat="45.915224198251963" lon="7.674851501360536">
        <ele>3070.0900000000001</ele>
        <time>2025-08-14T10:01:27Z</time>
      </trkpt>
      <trkpt lat="45.915147587656975" lon="7.674925848841667">
        <ele>3073.71</ele>
        <time>2025-08-14T10:01:53Z</time>
      </trkpt>
      <trkpt lat="45.915080448612571" lon="7.674999022856355">
        <ele>3076.5700000000002</ele>
        <time>2025-08-14T10:02:16Z</time>
      </trkpt>
      <trkpt lat="45.91505941003561" lon="7.675093151628971">
        <ele>3080.0799999999999</ele>
        <time>2025-08-14T10:02:41Z</time>
      </trkpt>
      <trkpt lat="45.914974752813578" lon="7.675154255703092">
        <ele>3081.5700000000002</ele>
        <time>2025-08-14T10:02:59Z</time>
      </trkpt>
      <trkpt lat="45.914918510243297" lon="7.67522650770843">
        <ele>3084.8400000000001</ele>
        <time>2025-08-14T10:03:22Z</time>
      </trkpt>
      <trkpt lat="45.914838211610913" lon="7.675301441922784">
        <ele>3087.21</ele>
        <time>2025-08-14T10:03:45Z</time>
      </trkpt>
      <trkpt lat="45.914767635986209" lon="7.67538140527904">
        <ele>3091.2199999999998</ele>
        <time>2025-08-14T10:04:12Z</time>
      </trkpt>
      <trkpt lat="45.914736706763506" lon="7.675506547093391">
        <ele>3096.1900000000001</ele>
        <time>2025-08-14T10:04:44Z</time>
      </trkpt>
      <trkpt lat="45.914787417277694" lon="7.675580224022269">
        <ele>3100.54</ele>
        <time>2025-08-14T10:05:15Z</time>
      </trkpt>
      <trkpt lat="45.914718937128782" lon="7.675666725263">
        <ele>3103.5500000000002</ele>
        <time>2025-08-14T10:05:37Z</time>
      </trkpt>
      <trkpt lat="45.914636291563511" lon="7.675722632557154">
        <ele>3105.8400000000001</ele>
        <time>2025-08-14T10:05:57Z</time>
      </trkpt>
      <trkpt lat="45.914577702060342" lon="7.675773929804564">
        <ele>3108.7399999999998</ele>
        <time>2025-08-14T10:06:39Z</time>
      </trkpt>
      <trkpt lat="45.914511233568192" lon="7.675860598683357">
        <ele>3113.6700000000001</ele>
        <time>2025-08-14T10:07:04Z</time>
      </trkpt>
      <trkpt lat="45.914483405649662" lon="7.675960762426257">
        <ele>3118.6799999999998</ele>
        <time>2025-08-14T10:08:03Z</time>
      </trkpt>
      <trkpt lat="45.914404699578881" lon="7.676052376627922">
        <ele>3122.4000000000001</ele>
        <time>2025-08-14T10:08:54Z</time>
      </trkpt>
      <trkpt lat="45.914325742051005" lon="7.676126472651959">
        <ele>3125.52</ele>
        <time>2025-08-14T10:09:12Z</time>
      </trkpt>
      <trkpt lat="45.914267152547836" lon="7.676219679415226">
        <ele>3128.9400000000001</ele>
        <time>2025-08-14T10:09:31Z</time>
      </trkpt>
      <trkpt lat="45.914196409285069" lon="7.676309617236257">
        <ele>3133.3200000000002</ele>
        <time>2025-08-14T10:09:58Z</time>
      </trkpt>
      <trkpt lat="45.914125749841332" lon="7.676363596692681">
        <ele>3135.0900000000001</ele>
        <time>2025-08-14T10:11:07Z</time>
      </trkpt>
      <trkpt lat="45.914085349068046" lon="7.67648471519351">
        <ele>3137.3899999999999</ele>
        <time>2025-08-14T10:11:23Z</time>
      </trkpt>
      <trkpt lat="45.914061544463038" lon="7.676587980240583">
        <ele>3140.04</ele>
        <time>2025-08-14T10:12:06Z</time>
      </trkpt>
      <trkpt lat="45.914107980206609" lon="7.676639696583152">
        <ele>3142.79</ele>
        <time>2025-08-14T10:12:21Z</time>
      </trkpt>
      <trkpt lat="45.914158187806606" lon="7.676697028800845">
        <ele>3148.0599999999999</ele>
        <time>2025-08-14T10:12:49Z</time>
      </trkpt>
      <trkpt lat="45.914209820330143" lon="7.676729550585151">
        <ele>3152.2399999999998</ele>
        <time>2025-08-14T10:13:16Z</time>
      </trkpt>
      <trkpt lat="45.914254495874047" lon="7.676767772063613">
        <ele>3156.27</ele>
        <time>2025-08-14T10:13:41Z</time>
      </trkpt>
      <trkpt lat="45.914264973253012" lon="7.6768081728369">
        <ele>3158.4000000000001</ele>
        <time>2025-08-14T10:16:31Z</time>
      </trkpt>
      <trkpt lat="45.914241168648005" lon="7.676870701834559">
        <ele>3160.54</ele>
        <time>2025-08-14T10:18:49Z</time>
      </trkpt>
      <trkpt lat="45.914227422326803" lon="7.676826613023877">
        <ele>3161.04</ele>
        <time>2025-08-14T10:32:38Z</time>
      </trkpt>
      <trkpt lat="45.914246197789907" lon="7.676827283576131">
        <ele>3164.8899999999999</ele>
        <time>2025-08-14T11:03:23Z</time>
      </trkpt>
      <trkpt lat="45.914290118962526" lon="7.676770370453596">
        <ele>3163.5999999999999</ele>
        <time>2025-08-14T11:06:35Z</time>
      </trkpt>
      <trkpt lat="45.914269499480724" lon="7.676745308563113">
        <ele>3163.6799999999998</ele>
        <time>2025-08-14T11:08:23Z</time>
      </trkpt>
      <trkpt lat="45.914216106757522" lon="7.676729299128056">
        <ele>3160.6300000000001</ele>
        <time>2025-08-14T11:09:19Z</time>
      </trkpt>
      <trkpt lat="45.914174364879727" lon="7.676666770130396">
        <ele>3156.79</ele>
        <time>2025-08-14T11:09:37Z</time>
      </trkpt>
      <trkpt lat="45.914123822003603" lon="7.676637265831232">
        <ele>3152.8699999999999</ele>
        <time>2025-08-14T11:09:53Z</time>
      </trkpt>
      <trkpt lat="45.914036817848682" lon="7.676667273044586">
        <ele>3148.6300000000001</ele>
        <time>2025-08-14T11:10:09Z</time>
      </trkpt>
      <trkpt lat="45.913986274972558" lon="7.676712116226554">
        <ele>3146.5700000000002</ele>
        <time>2025-08-14T11:10:50Z</time>
      </trkpt>
      <trkpt lat="45.913910754024982" lon="7.6767045725137">
        <ele>3145.25</ele>
        <time>2025-08-14T11:11:36Z</time>
      </trkpt>
      <trkpt lat="45.913823582231998" lon="7.676719073206186">
        <ele>3142.1199999999999</ele>
        <time>2025-08-14T11:11:45Z</time>
      </trkpt>
      <trkpt lat="45.913758706301451" lon="7.676651934161782">
        <ele>3138.8600000000001</ele>
        <time>2025-08-14T11:11:55Z</time>
      </trkpt>
      <trkpt lat="45.913679916411638" lon="7.67665863968432">
        <ele>3132.9099999999999</ele>
        <time>2025-08-14T11:12:14Z</time>
      </trkpt>
      <trkpt lat="45.913637923076749" lon="7.676595188677311">
        <ele>3128.04</ele>
        <time>2025-08-14T11:12:38Z</time>
      </trkpt>
      <trkpt lat="45.91362627223134" lon="7.676462000235915">
        <ele>3124.4699999999998</ele>
        <time>2025-08-14T11:13:23Z</time>
      </trkpt>
      <trkpt lat="45.9136370010674" lon="7.676336774602532">
        <ele>3122.2199999999998</ele>
        <time>2025-08-14T11:13:37Z</time>
      </trkpt>
      <trkpt lat="45.913645047694445" lon="7.676201574504376">
        <ele>3120.23</ele>
        <time>2025-08-14T11:13:50Z</time>
      </trkpt>
      <trkpt lat="45.913647059351206" lon="7.676078947260976">
        <ele>3116.8099999999999</ele>
        <time>2025-08-14T11:14:08Z</time>
      </trkpt>
      <trkpt lat="45.913634905591607" lon="7.675960594788194">
        <ele>3111.54</ele>
        <time>2025-08-14T11:14:32Z</time>
      </trkpt>
      <trkpt lat="45.913613867014647" lon="7.675863113254309">
        <ele>3107.46</ele>
        <time>2025-08-14T11:15:12Z</time>
      </trkpt>
      <trkpt lat="45.913586374372244" lon="7.675758926197887">
        <ele>3103</ele>
        <time>2025-08-14T11:15:31Z</time>
      </trkpt>
      <trkpt lat="45.913645215332508" lon="7.6756701618433">
        <ele>3099.8400000000001</ele>
        <time>2025-08-14T11:15:56Z</time>
      </trkpt>
      <trkpt lat="45.913619985803962" lon="7.675579553470016">
        <ele>3095.4400000000001</ele>
        <time>2025-08-14T11:16:41Z</time>
      </trkpt>
      <trkpt lat="45.913551673293114" lon="7.675508558750153">
        <ele>3090.0700000000002</ele>
        <time>2025-08-14T11:17:00Z</time>
      </trkpt>
      <trkpt lat="45.913514122366905" lon="7.675431361421943">
        <ele>3085.8499999999999</ele>
        <time>2025-08-14T11:17:18Z</time>
      </trkpt>
      <trkpt lat="45.913451928645372" lon="7.675360115244985">
        <ele>3081.1599999999999</ele>
        <time>2025-08-14T11:17:32Z</time>
      </trkpt>
      <trkpt lat="45.91345720924437" lon="7.675247462466359">
        <ele>3077.5</ele>
        <time>2025-08-14T11:17:54Z</time>
      </trkpt>
      <trkpt lat="45.913453605026007" lon="7.675164397805929">
        <ele>3073.6100000000001</ele>
        <time>2025-08-14T11:18:13Z</time>
      </trkpt>
      <trkpt lat="45.913372552022338" lon="7.675137910991907">
        <ele>3069.3899999999999</ele>
        <time>2025-08-14T11:18:31Z</time>
      </trkpt>
      <trkpt lat="45.913293594494462" lon="7.675211252644658">
        <ele>3068.6799999999998</ele>
        <time>2025-08-14T11:18:45Z</time>
      </trkpt>
      <trkpt lat="45.913225952535868" lon="7.675171857699752">
        <ele>3065.5500000000002</ele>
        <time>2025-08-14T11:19:03Z</time>
      </trkpt>
      <trkpt lat="45.913178510963917" lon="7.67528266645968">
        <ele>3061.79</ele>
        <time>2025-08-14T11:19:27Z</time>
      </trkpt>
      <trkpt lat="45.913157891482115" lon="7.675380986183882">
        <ele>3060.71</ele>
        <time>2025-08-14T11:19:44Z</time>
      </trkpt>
      <trkpt lat="45.91308974660933" lon="7.67544586211443">
        <ele>3056.8600000000001</ele>
        <time>2025-08-14T11:20:17Z</time>
      </trkpt>
      <trkpt lat="45.913027636706829" lon="7.675553318113089">
        <ele>3055.7199999999998</ele>
        <time>2025-08-14T11:20:29Z</time>
      </trkpt>
      <trkpt lat="45.912950355559587" lon="7.675640992820263">
        <ele>3054.0700000000002</ele>
        <time>2025-08-14T11:20:41Z</time>
      </trkpt>
      <trkpt lat="45.912871565669775" lon="7.675701510161161">
        <ele>3051.98</ele>
        <time>2025-08-14T11:20:53Z</time>
      </trkpt>
      <trkpt lat="45.91280241496861" lon="7.675799326971173">
        <ele>3050.04</ele>
        <time>2025-08-14T11:21:05Z</time>
      </trkpt>
      <trkpt lat="45.912726810202003" lon="7.675866046920419">
        <ele>3047.8899999999999</ele>
        <time>2025-08-14T11:21:17Z</time>
      </trkpt>
      <trkpt lat="45.91264994814992" lon="7.675946848466992">
        <ele>3045.7800000000002</ele>
        <time>2025-08-14T11:21:29Z</time>
      </trkpt>
      <trkpt lat="45.912567721679807" lon="7.675985908135772">
        <ele>3042.79</ele>
        <time>2025-08-14T11:21:40Z</time>
      </trkpt>
      <trkpt lat="45.912495134398341" lon="7.676068218424916">
        <ele>3040.23</ele>
        <time>2025-08-14T11:21:51Z</time>
      </trkpt>
      <trkpt lat="45.912415087223053" lon="7.676111804321408">
        <ele>3036.5100000000002</ele>
        <time>2025-08-14T11:22:09Z</time>
      </trkpt>
      <trkpt lat="45.912344930693507" lon="7.676202999427915">
        <ele>3032.73</ele>
        <time>2025-08-14T11:22:22Z</time>
      </trkpt>
      <trkpt lat="45.91227812692523" lon="7.67630442045629">
        <ele>3029.7600000000002</ele>
        <time>2025-08-14T11:22:32Z</time>
      </trkpt>
      <trkpt lat="45.912209143862128" lon="7.67635865136981">
        <ele>3026.8200000000002</ele>
        <time>2025-08-14T11:22:43Z</time>
      </trkpt>
      <trkpt lat="45.912136388942599" lon="7.676439201459289">
        <ele>3024.0799999999999</ele>
        <time>2025-08-14T11:22:55Z</time>
      </trkpt>
      <trkpt lat="45.91207972727716" lon="7.676537856459618">
        <ele>3021.23</ele>
        <time>2025-08-14T11:23:06Z</time>
      </trkpt>
      <trkpt lat="45.912019042298198" lon="7.676610192283988">
        <ele>3018.2199999999998</ele>
        <time>2025-08-14T11:23:22Z</time>
      </trkpt>
      <trkpt lat="45.911955423653126" lon="7.676696442067623">
        <ele>3015.77</ele>
        <time>2025-08-14T11:23:34Z</time>
      </trkpt>
      <trkpt lat="45.911896834149957" lon="7.676778333261609">
        <ele>3012.5999999999999</ele>
        <time>2025-08-14T11:23:47Z</time>
      </trkpt>
      <trkpt lat="45.91181150637567" lon="7.676775818690658">
        <ele>3009.9000000000001</ele>
        <time>2025-08-14T11:24:05Z</time>
      </trkpt>
      <trkpt lat="45.911739338189363" lon="7.67680917866528">
        <ele>3007.2399999999998</ele>
        <time>2025-08-14T11:24:17Z</time>
      </trkpt>
      <trkpt lat="45.911652920767665" lon="7.676774812862277">
        <ele>3004.1799999999998</ele>
        <time>2025-08-14T11:24:28Z</time>
      </trkpt>
      <trkpt lat="45.911579830572009" lon="7.676847567781806">
        <ele>3000.4499999999998</ele>
        <time>2025-08-14T11:24:39Z</time>
      </trkpt>
      <trkpt lat="45.911510931327939" lon="7.676933733746409">
        <ele>2997.5999999999999</ele>
        <time>2025-08-14T11:24:50Z</time>
      </trkpt>
      <trkpt lat="45.911434404551983" lon="7.676990060135722">
        <ele>2994.6999999999998</ele>
        <time>2025-08-14T11:24:59Z</time>
      </trkpt>
      <trkpt lat="45.911347987130284" lon="7.677066000178456">
        <ele>2990.79</ele>
        <time>2025-08-14T11:25:08Z</time>
      </trkpt>
      <trkpt lat="45.911266012117267" lon="7.677116459235549">
        <ele>2987.21</ele>
        <time>2025-08-14T11:25:16Z</time>
      </trkpt>
      <trkpt lat="45.911197364330292" lon="7.677164655178785">
        <ele>2986.4299999999998</ele>
        <time>2025-08-14T11:25:26Z</time>
      </trkpt>
      <trkpt lat="45.911178337410092" lon="7.67712333239615">
        <ele>2982.3699999999999</ele>
        <time>2025-08-14T11:29:55Z</time>
      </trkpt>
      <trkpt lat="45.911137601360679" lon="7.677009087055922">
        <ele>2980.7399999999998</ele>
        <time>2025-08-14T11:31:37Z</time>
      </trkpt>
      <trkpt lat="45.911062834784389" lon="7.676978912204504">
        <ele>2978.9099999999999</ele>
        <time>2025-08-14T11:31:48Z</time>
      </trkpt>
      <trkpt lat="45.910983206704259" lon="7.676918646320701">
        <ele>2975.96</ele>
        <time>2025-08-14T11:31:59Z</time>
      </trkpt>
      <trkpt lat="45.910942638292909" lon="7.676818063482642">
        <ele>2972.29</ele>
        <time>2025-08-14T11:32:14Z</time>
      </trkpt>
      <trkpt lat="45.910862255841494" lon="7.676859050989151">
        <ele>2968.71</ele>
        <time>2025-08-14T11:32:26Z</time>
      </trkpt>
      <trkpt lat="45.910807941108942" lon="7.676970781758428">
        <ele>2967.6100000000001</ele>
        <time>2025-08-14T11:32:36Z</time>
      </trkpt>
      <trkpt lat="45.910741724073887" lon="7.677044123411179">
        <ele>2966.0100000000002</ele>
        <time>2025-08-14T11:33:00Z</time>
      </trkpt>
      <trkpt lat="45.910677518695593" lon="7.677134647965431">
        <ele>2964.3600000000001</ele>
        <time>2025-08-14T11:33:10Z</time>
      </trkpt>
      <trkpt lat="45.910598644986749" lon="7.677212683483958">
        <ele>2962.8600000000001</ele>
        <time>2025-08-14T11:33:20Z</time>
      </trkpt>
      <trkpt lat="45.910535110160708" lon="7.677303459495306">
        <ele>2961.6799999999998</ele>
        <time>2025-08-14T11:33:31Z</time>
      </trkpt>
      <trkpt lat="45.910447267815471" lon="7.677303124219179">
        <ele>2959.2800000000002</ele>
        <time>2025-08-14T11:33:40Z</time>
      </trkpt>
      <trkpt lat="45.910387588664889" lon="7.677214862778783">
        <ele>2955.9200000000001</ele>
        <time>2025-08-14T11:33:50Z</time>
      </trkpt>
      <trkpt lat="45.910314498469234" lon="7.677143532782793">
        <ele>2950.9699999999998</ele>
        <time>2025-08-14T11:34:03Z</time>
      </trkpt>
      <trkpt lat="45.91025423258543" lon="7.677248558029532">
        <ele>2947.3699999999999</ele>
        <time>2025-08-14T11:34:16Z</time>
      </trkpt>
      <trkpt lat="45.910197487100959" lon="7.677341345697641">
        <ele>2944.1300000000001</ele>
        <time>2025-08-14T11:34:31Z</time>
      </trkpt>
      <trkpt lat="45.910152727738023" lon="7.677343860268593">
        <ele>2941.04</ele>
        <time>2025-08-14T11:34:48Z</time>
      </trkpt>
      <trkpt lat="45.910097574815154" lon="7.677399348467588">
        <ele>2936.3800000000001</ele>
        <time>2025-08-14T11:35:06Z</time>
      </trkpt>
      <trkpt lat="45.910057928413153" lon="7.677513845264912">
        <ele>2930.9099999999999</ele>
        <time>2025-08-14T11:35:23Z</time>
      </trkpt>
      <trkpt lat="45.910010235384107" lon="7.677586851641536">
        <ele>2925.4899999999998</ele>
        <time>2025-08-14T11:35:43Z</time>
      </trkpt>
      <trkpt lat="45.909939995035529" lon="7.677653655409813">
        <ele>2921.0100000000002</ele>
        <time>2025-08-14T11:35:58Z</time>
      </trkpt>
      <trkpt lat="45.909856511279941" lon="7.677630605176091">
        <ele>2916.4899999999998</ele>
        <time>2025-08-14T11:36:13Z</time>
      </trkpt>
      <trkpt lat="45.909815104678273" lon="7.677500937134028">
        <ele>2913.5900000000001</ele>
        <time>2025-08-14T11:36:25Z</time>
      </trkpt>
      <trkpt lat="45.909774200990796" lon="7.677369760349393">
        <ele>2910.8499999999999</ele>
        <time>2025-08-14T11:36:37Z</time>
      </trkpt>
      <trkpt lat="45.909772273153067" lon="7.677234644070268">
        <ele>2907.3899999999999</ele>
        <time>2025-08-14T11:36:51Z</time>
      </trkpt>
      <trkpt lat="45.909745199605823" lon="7.677103551104665">
        <ele>2904.02</ele>
        <time>2025-08-14T11:37:06Z</time>
      </trkpt>
      <trkpt lat="45.909685771912336" lon="7.677177228033543">
        <ele>2899.6300000000001</ele>
        <time>2025-08-14T11:37:20Z</time>
      </trkpt>
      <trkpt lat="45.909601030871272" lon="7.677283426746726">
        <ele>2898.2199999999998</ele>
        <time>2025-08-14T11:37:31Z</time>
      </trkpt>
      <trkpt lat="45.909509835764766" lon="7.677365317940712">
        <ele>2898.9899999999998</ele>
        <time>2025-08-14T11:37:42Z</time>
      </trkpt>
      <trkpt lat="45.909517463296652" lon="7.677434720098972">
        <ele>2897.48</ele>
        <time>2025-08-14T11:49:58Z</time>
      </trkpt>
      <trkpt lat="45.909449653699994" lon="7.677385518327355">
        <ele>2896.8200000000002</ele>
        <time>2025-08-14T11:51:58Z</time>
      </trkpt>
      <trkpt lat="45.909424088895321" lon="7.677277810871601">
        <ele>2893.96</ele>
        <time>2025-08-14T11:52:28Z</time>
      </trkpt>
      <trkpt lat="45.909363320097327" lon="7.677185358479619">
        <ele>2890.3200000000002</ele>
        <time>2025-08-14T11:52:40Z</time>
      </trkpt>
      <trkpt lat="45.909308586269617" lon="7.677068011835218">
        <ele>2886.8800000000001</ele>
        <time>2025-08-14T11:52:53Z</time>
      </trkpt>
      <trkpt lat="45.909221665933728" lon="7.677030460909009">
        <ele>2884.6100000000001</ele>
        <time>2025-08-14T11:53:04Z</time>
      </trkpt>
      <trkpt lat="45.909162992611527" lon="7.676923759281635">
        <ele>2882.1199999999999</ele>
        <time>2025-08-14T11:53:15Z</time>
      </trkpt>
      <trkpt lat="45.909108174964786" lon="7.676812028512359">
        <ele>2879.21</ele>
        <time>2025-08-14T11:53:27Z</time>
      </trkpt>
      <trkpt lat="45.909052351489663" lon="7.676704153418541">
        <ele>2875.8600000000001</ele>
        <time>2025-08-14T11:53:39Z</time>
      </trkpt>
      <trkpt lat="45.908989822492003" lon="7.676599463447928">
        <ele>2872.8899999999999</ele>
        <time>2025-08-14T11:53:52Z</time>
      </trkpt>
      <trkpt lat="45.908950930461287" lon="7.676478177309036">
        <ele>2870.52</ele>
        <time>2025-08-14T11:54:13Z</time>
      </trkpt>
      <trkpt lat="45.908950930461287" lon="7.67633275128901">
        <ele>2868.25</ele>
        <time>2025-08-14T11:54:24Z</time>
      </trkpt>
      <trkpt lat="45.908957216888666" lon="7.676185145974159">
        <ele>2867.7399999999998</ele>
        <time>2025-08-14T11:54:35Z</time>
      </trkpt>
      <trkpt lat="45.909006083384156" lon="7.676065284758806">
        <ele>2867.1300000000001</ele>
        <time>2025-08-14T11:54:44Z</time>
      </trkpt>
      <trkpt lat="45.90903022326529" lon="7.675961768254638">
        <ele>2865.8099999999999</ele>
        <time>2025-08-14T11:54:55Z</time>
      </trkpt>
      <trkpt lat="45.909000132232904" lon="7.675838386639953">
        <ele>2865.1700000000001</ele>
        <time>2025-08-14T11:55:07Z</time>
      </trkpt>
      <trkpt lat="45.908959899097681" lon="7.675718273967505">
        <ele>2864.1300000000001</ele>
        <time>2025-08-14T11:55:18Z</time>
      </trkpt>
      <trkpt lat="45.908927712589502" lon="7.675587935373187">
        <ele>2863.4000000000001</ele>
        <time>2025-08-14T11:55:28Z</time>
      </trkpt>
      <trkpt lat="45.908894687891006" lon="7.675461200997233">
        <ele>2862.1999999999998</ele>
        <time>2025-08-14T11:55:39Z</time>
      </trkpt>
      <trkpt lat="45.908850850537419" lon="7.675339914858341">
        <ele>2860.1900000000001</ele>
        <time>2025-08-14T11:55:51Z</time>
      </trkpt>
      <trkpt lat="45.90881522744894" lon="7.675219466909766">
        <ele>2858.0599999999999</ele>
        <time>2025-08-14T11:56:03Z</time>
      </trkpt>
      <trkpt lat="45.908784298226237" lon="7.675083596259356">
        <ele>2855.8200000000002</ele>
        <time>2025-08-14T11:56:30Z</time>
      </trkpt>
      <trkpt lat="45.908745154738426" lon="7.674957448616624">
        <ele>2853.4099999999999</ele>
        <time>2025-08-14T11:56:41Z</time>
      </trkpt>
      <trkpt lat="45.908714896067977" lon="7.674827445298433">
        <ele>2850.6100000000001</ele>
        <time>2025-08-14T11:56:52Z</time>
      </trkpt>
      <trkpt lat="45.908682039007545" lon="7.674701465293765">
        <ele>2848.1100000000001</ele>
        <time>2025-08-14T11:57:03Z</time>
      </trkpt>
      <trkpt lat="45.908648343756795" lon="7.674577077850699">
        <ele>2846.3200000000002</ele>
        <time>2025-08-14T11:57:14Z</time>
      </trkpt>
      <trkpt lat="45.908617414534092" lon="7.674453277140856">
        <ele>2844.8299999999999</ele>
        <time>2025-08-14T11:57:25Z</time>
      </trkpt>
      <trkpt lat="45.908569805324078" lon="7.67434355802834">
        <ele>2842.3499999999999</ele>
        <time>2025-08-14T11:57:35Z</time>
      </trkpt>
      <trkpt lat="45.908526303246617" lon="7.674226798117161">
        <ele>2840.6500000000001</ele>
        <time>2025-08-14T11:57:45Z</time>
      </trkpt>
      <trkpt lat="45.908471401780844" lon="7.674113474786282">
        <ele>2837.6700000000001</ele>
        <time>2025-08-14T11:57:56Z</time>
      </trkpt>
      <trkpt lat="45.908380458131433" lon="7.67409972846508">
        <ele>2836.1799999999998</ele>
        <time>2025-08-14T11:58:06Z</time>
      </trkpt>
      <trkpt lat="45.908299321308732" lon="7.674172902479768">
        <ele>2835.9299999999998</ele>
        <time>2025-08-14T11:58:15Z</time>
      </trkpt>
      <trkpt lat="45.908230254426599" lon="7.674271054565907">
        <ele>2836.25</ele>
        <time>2025-08-14T11:58:25Z</time>
      </trkpt>
      <trkpt lat="45.908155236393213" lon="7.674339367076755">
        <ele>2836.6599999999999</ele>
        <time>2025-08-14T11:58:34Z</time>
      </trkpt>
      <trkpt lat="45.908079044893384" lon="7.674404410645366">
        <ele>2837.27</ele>
        <time>2025-08-14T11:58:43Z</time>
      </trkpt>
      <trkpt lat="45.908001009374857" lon="7.674466772004962">
        <ele>2837.2399999999998</ele>
        <time>2025-08-14T11:58:52Z</time>
      </trkpt>
      <trkpt lat="45.907922722399235" lon="7.674424359574914">
        <ele>2836.1100000000001</ele>
        <time>2025-08-14T11:59:02Z</time>
      </trkpt>
      <trkpt lat="45.907850302755833" lon="7.674334086477757">
        <ele>2832.8899999999999</ele>
        <time>2025-08-14T11:59:15Z</time>
      </trkpt>
      <trkpt lat="45.907774530351162" lon="7.674254458397627">
        <ele>2829.4699999999998</ele>
        <time>2025-08-14T11:59:27Z</time>
      </trkpt>
      <trkpt lat="45.907693142071366" lon="7.674185559153557">
        <ele>2827.4499999999998</ele>
        <time>2025-08-14T11:59:37Z</time>
      </trkpt>
      <trkpt lat="45.907608401030302" lon="7.67412856221199">
        <ele>2826.8899999999999</ele>
        <time>2025-08-14T11:59:46Z</time>
      </trkpt>
      <trkpt lat="45.90751645155251" lon="7.674079360440373">
        <ele>2826.6599999999999</ele>
        <time>2025-08-14T11:59:57Z</time>
      </trkpt>
      <trkpt lat="45.907427771016955" lon="7.674052203074098">
        <ele>2826.4000000000001</ele>
        <time>2025-08-14T12:00:07Z</time>
      </trkpt>
      <trkpt lat="45.907340012490749" lon="7.674006437882781">
        <ele>2826.2800000000002</ele>
        <time>2025-08-14T12:00:17Z</time>
      </trkpt>
      <trkpt lat="45.907242447137833" lon="7.673972994089127">
        <ele>2825.5700000000002</ele>
        <time>2025-08-14T12:00:43Z</time>
      </trkpt>
      <trkpt lat="45.907144630327821" lon="7.673980034887791">
        <ele>2824.0300000000002</ele>
        <time>2025-08-14T12:00:54Z</time>
      </trkpt>
      <trkpt lat="45.907051339745522" lon="7.673993948847055">
        <ele>2821.5900000000001</ele>
        <time>2025-08-14T12:01:06Z</time>
      </trkpt>
      <trkpt lat="45.906958300620317" lon="7.673964528366923">
        <ele>2819.5900000000001</ele>
        <time>2025-08-14T12:01:16Z</time>
      </trkpt>
      <trkpt lat="45.906896274536848" lon="7.673893114551902">
        <ele>2818.25</ele>
        <time>2025-08-14T12:02:10Z</time>
      </trkpt>
      <trkpt lat="45.906806001439691" lon="7.673866879194975">
        <ele>2817.1900000000001</ele>
        <time>2025-08-14T12:02:26Z</time>
      </trkpt>
      <trkpt lat="45.906717153266072" lon="7.673822203651071">
        <ele>2815.8200000000002</ele>
        <time>2025-08-14T12:02:36Z</time>
      </trkpt>
      <trkpt lat="45.906626796349883" lon="7.673782641068101">
        <ele>2814.8800000000001</ele>
        <time>2025-08-14T12:02:45Z</time>
      </trkpt>
      <trkpt lat="45.906544737517834" lon="7.673708964139223">
        <ele>2814.1900000000001</ele>
        <time>2025-08-14T12:02:54Z</time>
      </trkpt>
      <trkpt lat="45.906466450542212" lon="7.673633527010679">
        <ele>2813.3800000000001</ele>
        <time>2025-08-14T12:03:02Z</time>
      </trkpt>
      <trkpt lat="45.906396629288793" lon="7.673552725464106">
        <ele>2813.04</ele>
        <time>2025-08-14T12:03:10Z</time>
      </trkpt>
      <trkpt lat="45.906326388940215" lon="7.673461195081472">
        <ele>2812.5599999999999</ele>
        <time>2025-08-14T12:03:19Z</time>
      </trkpt>
      <trkpt lat="45.906245252117515" lon="7.67337896861136">
        <ele>2811.9400000000001</ele>
        <time>2025-08-14T12:03:28Z</time>
      </trkpt>
      <trkpt lat="45.906162271276116" lon="7.673294814303517">
        <ele>2811.1500000000001</ele>
        <time>2025-08-14T12:03:37Z</time>
      </trkpt>
      <trkpt lat="45.90607744641602" lon="7.673222478479147">
        <ele>2810.4899999999998</ele>
        <time>2025-08-14T12:03:45Z</time>
      </trkpt>
      <trkpt lat="45.905992621555924" lon="7.673157267272472">
        <ele>2810.27</ele>
        <time>2025-08-14T12:03:53Z</time>
      </trkpt>
      <trkpt lat="45.90590251609683" lon="7.673091972246766">
        <ele>2809.1900000000001</ele>
        <time>2025-08-14T12:04:02Z</time>
      </trkpt>
      <trkpt lat="45.905808554962277" lon="7.673037992790341">
        <ele>2808.0999999999999</ele>
        <time>2025-08-14T12:04:11Z</time>
      </trkpt>
      <trkpt lat="45.905722221359611" lon="7.672987869009376">
        <ele>2807.3499999999999</ele>
        <time>2025-08-14T12:04:20Z</time>
      </trkpt>
      <trkpt lat="45.905638569965959" lon="7.672926932573319">
        <ele>2806.4899999999998</ele>
        <time>2025-08-14T12:04:29Z</time>
      </trkpt>
      <trkpt lat="45.905562294647098" lon="7.672852836549282">
        <ele>2806.0500000000002</ele>
        <time>2025-08-14T12:04:40Z</time>
      </trkpt>
      <trkpt lat="45.905499598011374" lon="7.672771280631423">
        <ele>2805.1199999999999</ele>
        <time>2025-08-14T12:04:49Z</time>
      </trkpt>
      <trkpt lat="45.905461125075817" lon="7.672656951472163">
        <ele>2804.5700000000002</ele>
        <time>2025-08-14T12:04:58Z</time>
      </trkpt>
      <trkpt lat="45.905436985194683" lon="7.672526948153973">
        <ele>2803.8699999999999</ele>
        <time>2025-08-14T12:05:07Z</time>
      </trkpt>
      <trkpt lat="45.905454000458121" lon="7.672400129958987">
        <ele>2803.0700000000002</ele>
        <time>2025-08-14T12:05:17Z</time>
      </trkpt>
      <trkpt lat="45.905498759821057" lon="7.672278927639127">
        <ele>2801.5599999999999</ele>
        <time>2025-08-14T12:05:28Z</time>
      </trkpt>
      <trkpt lat="45.905464896932244" lon="7.672170717269182">
        <ele>2798.1500000000001</ele>
        <time>2025-08-14T12:05:41Z</time>
      </trkpt>
      <trkpt lat="45.905439415946603" lon="7.672046748921275">
        <ele>2795.1999999999998</ele>
        <time>2025-08-14T12:05:53Z</time>
      </trkpt>
      <trkpt lat="45.905430112034082" lon="7.671919679269195">
        <ele>2791.8899999999999</ele>
        <time>2025-08-14T12:06:04Z</time>
      </trkpt>
      <trkpt lat="45.905429944396019" lon="7.671786323189735">
        <ele>2790.27</ele>
        <time>2025-08-14T12:06:14Z</time>
      </trkpt>
      <trkpt lat="45.905391052365303" lon="7.671675598248839">
        <ele>2787.1199999999999</ele>
        <time>2025-08-14T12:06:26Z</time>
      </trkpt>
      <trkpt lat="45.905308993533254" lon="7.671623965725303">
        <ele>2783.96</ele>
        <time>2025-08-14T12:06:37Z</time>
      </trkpt>
      <trkpt lat="45.905227353796363" lon="7.671535452827811">
        <ele>2782.0300000000002</ele>
        <time>2025-08-14T12:06:47Z</time>
      </trkpt>
      <trkpt lat="45.905144121497869" lon="7.671479042619467">
        <ele>2781.0700000000002</ele>
        <time>2025-08-14T12:06:57Z</time>
      </trkpt>
      <trkpt lat="45.905052591115236" lon="7.67141617834568">
        <ele>2779.9099999999999</ele>
        <time>2025-08-14T12:07:07Z</time>
      </trkpt>
      <trkpt lat="45.905000288039446" lon="7.671318361535668">
        <ele>2779.0100000000002</ele>
        <time>2025-08-14T12:07:16Z</time>
      </trkpt>
      <trkpt lat="45.90495653450489" lon="7.671200344339013">
        <ele>2778.0799999999999</ele>
        <time>2025-08-14T12:07:26Z</time>
      </trkpt>
      <trkpt lat="45.90491009876132" lon="7.671091295778751">
        <ele>2774.7399999999998</ele>
        <time>2025-08-14T12:07:37Z</time>
      </trkpt>
      <trkpt lat="45.90489199385047" lon="7.670963974669576">
        <ele>2771.4400000000001</ele>
        <time>2025-08-14T12:08:56Z</time>
      </trkpt>
      <trkpt lat="45.904836421832442" lon="7.670850567519665">
        <ele>2768.75</ele>
        <time>2025-08-14T12:09:13Z</time>
      </trkpt>
      <trkpt lat="45.904775066301227" lon="7.670746967196465">
        <ele>2767.6999999999998</ele>
        <time>2025-08-14T12:09:23Z</time>
      </trkpt>
      <trkpt lat="45.90469409711659" lon="7.670672871172428">
        <ele>2765.48</ele>
        <time>2025-08-14T12:09:34Z</time>
      </trkpt>
      <trkpt lat="45.904617486521602" lon="7.670607157051563">
        <ele>2763.4299999999998</ele>
        <time>2025-08-14T12:09:44Z</time>
      </trkpt>
      <trkpt lat="45.904547749087214" lon="7.6705327257514">
        <ele>2761.9099999999999</ele>
        <time>2025-08-14T12:09:57Z</time>
      </trkpt>
      <trkpt lat="45.904471138492227" lon="7.670456450432539">
        <ele>2760.3000000000002</ele>
        <time>2025-08-14T12:10:07Z</time>
      </trkpt>
      <trkpt lat="45.90439360588789" lon="7.670397190377116">
        <ele>2758.0700000000002</ele>
        <time>2025-08-14T12:10:18Z</time>
      </trkpt>
      <trkpt lat="45.904321353882551" lon="7.670349916443229">
        <ele>2755.3499999999999</ele>
        <time>2025-08-14T12:10:29Z</time>
      </trkpt>
      <trkpt lat="45.90426511131227" lon="7.670255284756422">
        <ele>2751.4899999999998</ele>
        <time>2025-08-14T12:10:44Z</time>
      </trkpt>
      <trkpt lat="45.904217921197414" lon="7.670143134891987">
        <ele>2747.1700000000001</ele>
        <time>2025-08-14T12:10:59Z</time>
      </trkpt>
      <trkpt lat="45.90415857732296" lon="7.670045737177134">
        <ele>2742.4099999999999</ele>
        <time>2025-08-14T12:11:15Z</time>
      </trkpt>
      <trkpt lat="45.904092444106936" lon="7.669960241764784">
        <ele>2737.8099999999999</ele>
        <time>2025-08-14T12:11:26Z</time>
      </trkpt>
      <trkpt lat="45.904019018635154" lon="7.669884469360113">
        <ele>2733.79</ele>
        <time>2025-08-14T12:11:39Z</time>
      </trkpt>
      <trkpt lat="45.903945928439498" lon="7.669810373336077">
        <ele>2731.3800000000001</ele>
        <time>2025-08-14T12:11:51Z</time>
      </trkpt>
      <trkpt lat="45.903859259560704" lon="7.669743401929736">
        <ele>2729.7600000000002</ele>
        <time>2025-08-14T12:12:01Z</time>
      </trkpt>
      <trkpt lat="45.903778038918972" lon="7.669715574011207">
        <ele>2729.1900000000001</ele>
        <time>2025-08-14T12:12:11Z</time>
      </trkpt>
      <trkpt lat="45.90370612218976" lon="7.66971917822957">
        <ele>2728.8699999999999</ele>
        <time>2025-08-14T12:12:43Z</time>
      </trkpt>
      <trkpt lat="45.903690112754703" lon="7.669700989499688">
        <ele>2728.4099999999999</ele>
        <time>2025-08-14T12:13:44Z</time>
      </trkpt>
      <trkpt lat="45.90374275110662" lon="7.669590599834919">
        <ele>2727.5500000000002</ele>
        <time>2025-08-14T12:13:56Z</time>
      </trkpt>
      <trkpt lat="45.903726322576404" lon="7.669453052803874">
        <ele>2726.9099999999999</ele>
        <time>2025-08-14T12:14:06Z</time>
      </trkpt>
      <trkpt lat="45.903691621497273" lon="7.669326486065984">
        <ele>2725.79</ele>
        <time>2025-08-14T12:14:16Z</time>
      </trkpt>
      <trkpt lat="45.903693214058876" lon="7.669186089187861">
        <ele>2723.7600000000002</ele>
        <time>2025-08-14T12:14:27Z</time>
      </trkpt>
      <trkpt lat="45.903685670346022" lon="7.669045776128769">
        <ele>2721.5999999999999</ele>
        <time>2025-08-14T12:14:39Z</time>
      </trkpt>
      <trkpt lat="45.903656082227826" lon="7.668928345665336">
        <ele>2718.7600000000002</ele>
        <time>2025-08-14T12:14:51Z</time>
      </trkpt>
      <trkpt lat="45.903610568493605" lon="7.66882692463696">
        <ele>2716.4499999999998</ele>
        <time>2025-08-14T12:15:02Z</time>
      </trkpt>
      <trkpt lat="45.903620207682252" lon="7.66869792714715">
        <ele>2713.3000000000002</ele>
        <time>2025-08-14T12:15:15Z</time>
      </trkpt>
      <trkpt lat="45.903623895719647" lon="7.668555937707424">
        <ele>2709.9200000000001</ele>
        <time>2025-08-14T12:15:29Z</time>
      </trkpt>
      <trkpt lat="45.903620040044188" lon="7.668429454788566">
        <ele>2706.9400000000001</ele>
        <time>2025-08-14T12:15:41Z</time>
      </trkpt>
      <trkpt lat="45.903631439432502" lon="7.668293584138155">
        <ele>2704.7199999999998</ele>
        <time>2025-08-14T12:15:52Z</time>
      </trkpt>
      <trkpt lat="45.903639066964388" lon="7.668163161724806">
        <ele>2703.2600000000002</ele>
        <time>2025-08-14T12:16:03Z</time>
      </trkpt>
      <trkpt lat="45.903558013960719" lon="7.668104404583573">
        <ele>2701.7600000000002</ele>
        <time>2025-08-14T12:16:16Z</time>
      </trkpt>
      <trkpt lat="45.903472267091274" lon="7.668141452595592">
        <ele>2700.4400000000001</ele>
        <time>2025-08-14T12:16:27Z</time>
      </trkpt>
      <trkpt lat="45.903402781113982" lon="7.668228205293417">
        <ele>2698.4000000000001</ele>
        <time>2025-08-14T12:16:37Z</time>
      </trkpt>
      <trkpt lat="45.903347544372082" lon="7.668339349329472">
        <ele>2697.3800000000001</ele>
        <time>2025-08-14T12:16:47Z</time>
      </trkpt>
      <trkpt lat="45.903265066444874" lon="7.668426521122456">
        <ele>2696.1100000000001</ele>
        <time>2025-08-14T12:16:56Z</time>
      </trkpt>
      <trkpt lat="45.903176721185446" lon="7.668472789227963">
        <ele>2694.3000000000002</ele>
        <time>2025-08-14T12:17:05Z</time>
      </trkpt>
      <trkpt lat="45.90310069732368" lon="7.668548980727792">
        <ele>2692.3800000000001</ele>
        <time>2025-08-14T12:17:15Z</time>
      </trkpt>
      <trkpt lat="45.903022075071931" lon="7.668614443391562">
        <ele>2690.3499999999999</ele>
        <time>2025-08-14T12:17:25Z</time>
      </trkpt>
      <trkpt lat="45.902940686792135" lon="7.668666914105415">
        <ele>2688.1700000000001</ele>
        <time>2025-08-14T12:17:35Z</time>
      </trkpt>
      <trkpt lat="45.902861561626196" lon="7.6687384955585">
        <ele>2685.46</ele>
        <time>2025-08-14T12:17:45Z</time>
      </trkpt>
      <trkpt lat="45.902782771736383" lon="7.668809071183205">
        <ele>2682.9000000000001</ele>
        <time>2025-08-14T12:17:56Z</time>
      </trkpt>
      <trkpt lat="45.902696521952748" lon="7.66887185163796">
        <ele>2680.6399999999999</ele>
        <time>2025-08-14T12:18:10Z</time>
      </trkpt>
      <trkpt lat="45.902615133672953" lon="7.668906468898058">
        <ele>2678.27</ele>
        <time>2025-08-14T12:18:20Z</time>
      </trkpt>
      <trkpt lat="45.902536176145077" lon="7.668856764212251">
        <ele>2675.3099999999999</ele>
        <time>2025-08-14T12:18:32Z</time>
      </trkpt>
      <trkpt lat="45.902439281344414" lon="7.668845029547811">
        <ele>2672.3600000000001</ele>
        <time>2025-08-14T12:18:43Z</time>
      </trkpt>
      <trkpt lat="45.902349427342415" lon="7.668851986527443">
        <ele>2670.1399999999999</ele>
        <time>2025-08-14T12:18:53Z</time>
      </trkpt>
      <trkpt lat="45.902262087911367" lon="7.668905630707741">
        <ele>2669.0100000000002</ele>
        <time>2025-08-14T12:19:02Z</time>
      </trkpt>
      <trkpt lat="45.902170473709702" lon="7.668869253247976">
        <ele>2668.3200000000002</ele>
        <time>2025-08-14T12:19:11Z</time>
      </trkpt>
      <trkpt lat="45.902103753760457" lon="7.668781746178865">
        <ele>2667.21</ele>
        <time>2025-08-14T12:19:20Z</time>
      </trkpt>
      <trkpt lat="45.902048014104366" lon="7.668683677911758">
        <ele>2665.73</ele>
        <time>2025-08-14T12:19:35Z</time>
      </trkpt>
      <trkpt lat="45.902005350217223" lon="7.668564235791564">
        <ele>2663.48</ele>
        <time>2025-08-14T12:19:52Z</time>
      </trkpt>
      <trkpt lat="45.901978276669979" lon="7.668445883318782">
        <ele>2662.5100000000002</ele>
        <time>2025-08-14T12:20:05Z</time>
      </trkpt>
      <trkpt lat="45.901942402124405" lon="7.668339097872376">
        <ele>2659.9000000000001</ele>
        <time>2025-08-14T12:20:17Z</time>
      </trkpt>
      <trkpt lat="45.901935696601868" lon="7.668208172544837">
        <ele>2656.3899999999999</ele>
        <time>2025-08-14T12:20:32Z</time>
      </trkpt>
      <trkpt lat="45.901918346062303" lon="7.66809937544167">
        <ele>2652.8800000000001</ele>
        <time>2025-08-14T12:20:52Z</time>
      </trkpt>
      <trkpt lat="45.901863863691688" lon="7.668004995211959">
        <ele>2649.54</ele>
        <time>2025-08-14T12:21:05Z</time>
      </trkpt>
      <trkpt lat="45.901795467361808" lon="7.667937269434333">
        <ele>2646.1500000000001</ele>
        <time>2025-08-14T12:21:20Z</time>
      </trkpt>
      <trkpt lat="45.901737716048956" lon="7.667825538665056">
        <ele>2644.2399999999998</ele>
        <time>2025-08-14T12:21:36Z</time>
      </trkpt>
      <trkpt lat="45.901684574782848" lon="7.667718753218651">
        <ele>2642.9899999999998</ele>
        <time>2025-08-14T12:21:46Z</time>
      </trkpt>
      <trkpt lat="45.901619531214237" lon="7.667640885338187">
        <ele>2641.9200000000001</ele>
        <time>2025-08-14T12:21:58Z</time>
      </trkpt>
      <trkpt lat="45.901531605049968" lon="7.667624037712812">
        <ele>2639.52</ele>
        <time>2025-08-14T12:22:18Z</time>
      </trkpt>
      <trkpt lat="45.901444684714079" lon="7.667635018005967">
        <ele>2636.6399999999999</ele>
        <time>2025-08-14T12:22:36Z</time>
      </trkpt>
      <trkpt lat="45.901376204565167" lon="7.667687823995948">
        <ele>2634.2199999999998</ele>
        <time>2025-08-14T12:22:52Z</time>
      </trkpt>
      <trkpt lat="45.901353908702731" lon="7.667795028537512">
        <ele>2631.8899999999999</ele>
        <time>2025-08-14T12:23:25Z</time>
      </trkpt>
      <trkpt lat="45.901286518201232" lon="7.667827466502786">
        <ele>2629.1999999999998</ele>
        <time>2025-08-14T12:27:28Z</time>
      </trkpt>
      <trkpt lat="45.901219630613923" lon="7.667737947776914">
        <ele>2625.8200000000002</ele>
        <time>2025-08-14T12:27:42Z</time>
      </trkpt>
      <trkpt lat="45.901127681136131" lon="7.667729817330837">
        <ele>2623.3699999999999</ele>
        <time>2025-08-14T12:27:54Z</time>
      </trkpt>
      <trkpt lat="45.901037491858006" lon="7.667731661349535">
        <ele>2620.3699999999999</ele>
        <time>2025-08-14T12:28:06Z</time>
      </trkpt>
      <trkpt lat="45.900951744988561" lon="7.667727135121822">
        <ele>2616.54</ele>
        <time>2025-08-14T12:28:18Z</time>
      </trkpt>
      <trkpt lat="45.900868764147162" lon="7.667713388800621">
        <ele>2614.9099999999999</ele>
        <time>2025-08-14T12:28:28Z</time>
      </trkpt>
      <trkpt lat="45.90078167617321" lon="7.667666198685765">
        <ele>2612.71</ele>
        <time>2025-08-14T12:28:40Z</time>
      </trkpt>
      <trkpt lat="45.900702718645334" lon="7.667616996914148">
        <ele>2611.0999999999999</ele>
        <time>2025-08-14T12:28:52Z</time>
      </trkpt>
      <trkpt lat="45.90064387768507" lon="7.667515827342868">
        <ele>2608.54</ele>
        <time>2025-08-14T12:29:04Z</time>
      </trkpt>
      <trkpt lat="45.900621078908443" lon="7.667390266433358">
        <ele>2605.52</ele>
        <time>2025-08-14T12:29:19Z</time>
      </trkpt>
      <trkpt lat="45.900580007582903" lon="7.667269399389625">
        <ele>2603.4499999999998</ele>
        <time>2025-08-14T12:29:35Z</time>
      </trkpt>
      <trkpt lat="45.900502474978566" lon="7.667209468781948">
        <ele>2600.5100000000002</ele>
        <time>2025-08-14T12:29:46Z</time>
      </trkpt>
      <trkpt lat="45.900470372289419" lon="7.667090026661754">
        <ele>2598.8899999999999</ele>
        <time>2025-08-14T12:29:56Z</time>
      </trkpt>
      <trkpt lat="45.900426199659705" lon="7.666966980323196">
        <ele>2597.4699999999998</ele>
        <time>2025-08-14T12:30:06Z</time>
      </trkpt>
      <trkpt lat="45.900362664833665" lon="7.666874108836055">
        <ele>2595.9400000000001</ele>
        <time>2025-08-14T12:30:16Z</time>
      </trkpt>
      <trkpt lat="45.90031648054719" lon="7.666759695857763">
        <ele>2594.0900000000001</ele>
        <time>2025-08-14T12:30:27Z</time>
      </trkpt>
      <trkpt lat="45.900266943499446" lon="7.666660621762276">
        <ele>2592.0300000000002</ele>
        <time>2025-08-14T12:30:37Z</time>
      </trkpt>
      <trkpt lat="45.900185806676745" lon="7.666589794680476">
        <ele>2590.1399999999999</ele>
        <time>2025-08-14T12:30:48Z</time>
      </trkpt>
      <trkpt lat="45.900106430053711" lon="7.666533552110195">
        <ele>2588.6599999999999</ele>
        <time>2025-08-14T12:30:59Z</time>
      </trkpt>
      <trkpt lat="45.900030490010977" lon="7.666475381702185">
        <ele>2586.4000000000001</ele>
        <time>2025-08-14T12:31:14Z</time>
      </trkpt>
      <trkpt lat="45.899962596595287" lon="7.666377983987331">
        <ele>2582.9099999999999</ele>
        <time>2025-08-14T12:31:27Z</time>
      </trkpt>
      <trkpt lat="45.899903336539865" lon="7.666284525766969">
        <ele>2581.27</ele>
        <time>2025-08-14T12:31:38Z</time>
      </trkpt>
      <trkpt lat="45.899825720116496" lon="7.666216129437089">
        <ele>2578.5500000000002</ele>
        <time>2025-08-14T12:31:49Z</time>
      </trkpt>
      <trkpt lat="45.89974869042635" lon="7.66612971201539">
        <ele>2576.2199999999998</ele>
        <time>2025-08-14T12:32:01Z</time>
      </trkpt>
      <trkpt lat="45.899678617715836" lon="7.666049832478166">
        <ele>2574.6300000000001</ele>
        <time>2025-08-14T12:32:12Z</time>
      </trkpt>
      <trkpt lat="45.899628913030028" lon="7.665933072566986">
        <ele>2572.71</ele>
        <time>2025-08-14T12:32:23Z</time>
      </trkpt>
      <trkpt lat="45.899575185030699" lon="7.665829472243786">
        <ele>2571.5999999999999</ele>
        <time>2025-08-14T12:32:32Z</time>
      </trkpt>
      <trkpt lat="45.89951416477561" lon="7.665723860263825">
        <ele>2570.0500000000002</ele>
        <time>2025-08-14T12:32:42Z</time>
      </trkpt>
      <trkpt lat="45.899448283016682" lon="7.665629982948303">
        <ele>2568.3499999999999</ele>
        <time>2025-08-14T12:32:52Z</time>
      </trkpt>
      <trkpt lat="45.899398913607001" lon="7.665516911074519">
        <ele>2566.23</ele>
        <time>2025-08-14T12:33:02Z</time>
      </trkpt>
      <trkpt lat="45.899323476478457" lon="7.665429236367345">
        <ele>2564.02</ele>
        <time>2025-08-14T12:33:13Z</time>
      </trkpt>
      <trkpt lat="45.899251643568277" lon="7.665334269404411">
        <ele>2562.04</ele>
        <time>2025-08-14T12:33:24Z</time>
      </trkpt>
      <trkpt lat="45.899180648848414" lon="7.665245169773698">
        <ele>2560.4899999999998</ele>
        <time>2025-08-14T12:33:34Z</time>
      </trkpt>
      <trkpt lat="45.899150306358933" lon="7.665110807865858">
        <ele>2558.6599999999999</ele>
        <time>2025-08-14T12:33:45Z</time>
      </trkpt>
      <trkpt lat="45.899128513410687" lon="7.664976697415113">
        <ele>2557.6999999999998</ele>
        <time>2025-08-14T12:33:54Z</time>
      </trkpt>
      <trkpt lat="45.899069337174296" lon="7.664879634976387">
        <ele>2556.8099999999999</ele>
        <time>2025-08-14T12:34:05Z</time>
      </trkpt>
      <trkpt lat="45.899013597518206" lon="7.664760025218129">
        <ele>2556.2399999999998</ele>
        <time>2025-08-14T12:34:14Z</time>
      </trkpt>
      <trkpt lat="45.898940674960613" lon="7.664660112932324">
        <ele>2555.02</ele>
        <time>2025-08-14T12:34:23Z</time>
      </trkpt>
      <trkpt lat="45.898889042437077" lon="7.66455290839076">
        <ele>2553.6500000000001</ele>
        <time>2025-08-14T12:34:32Z</time>
      </trkpt>
      <trkpt lat="45.898849060758948" lon="7.664424078539014">
        <ele>2552.3800000000001</ele>
        <time>2025-08-14T12:34:42Z</time>
      </trkpt>
      <trkpt lat="45.89882324449718" lon="7.664291141554713">
        <ele>2551.3899999999999</ele>
        <time>2025-08-14T12:34:51Z</time>
      </trkpt>
      <trkpt lat="45.898782256990671" lon="7.664165496826172">
        <ele>2550.9200000000001</ele>
        <time>2025-08-14T12:35:00Z</time>
      </trkpt>
      <trkpt lat="45.898734563961625" lon="7.664055274799466">
        <ele>2549.4699999999998</ele>
        <time>2025-08-14T12:35:20Z</time>
      </trkpt>
      <trkpt lat="45.89870011433959" lon="7.663934491574764">
        <ele>2548.6599999999999</ele>
        <time>2025-08-14T12:35:29Z</time>
      </trkpt>
      <trkpt lat="45.898660384118557" lon="7.663813708350062">
        <ele>2547.6999999999998</ele>
        <time>2025-08-14T12:35:38Z</time>
      </trkpt>
      <trkpt lat="45.898615792393684" lon="7.663703318685293">
        <ele>2546.2399999999998</ele>
        <time>2025-08-14T12:35:47Z</time>
      </trkpt>
      <trkpt lat="45.898563573136926" lon="7.663590749725699">
        <ele>2544.9699999999998</ele>
        <time>2025-08-14T12:35:59Z</time>
      </trkpt>
      <trkpt lat="45.898510934785008" lon="7.663477594032884">
        <ele>2543.9200000000001</ele>
        <time>2025-08-14T12:36:08Z</time>
      </trkpt>
      <trkpt lat="45.898462738841772" lon="7.663364773616195">
        <ele>2543.1900000000001</ele>
        <time>2025-08-14T12:36:17Z</time>
      </trkpt>
      <trkpt lat="45.898404903709888" lon="7.663267208263278">
        <ele>2542.3699999999999</ele>
        <time>2025-08-14T12:36:26Z</time>
      </trkpt>
      <trkpt lat="45.89834681712091" lon="7.663161931559444">
        <ele>2541.46</ele>
        <time>2025-08-14T12:36:35Z</time>
      </trkpt>
      <trkpt lat="45.898310774937272" lon="7.663047183305025">
        <ele>2540.8000000000002</ele>
        <time>2025-08-14T12:36:44Z</time>
      </trkpt>
      <trkpt lat="45.898253107443452" lon="7.662931764498353">
        <ele>2540.3200000000002</ele>
        <time>2025-08-14T12:36:54Z</time>
      </trkpt>
      <trkpt lat="45.898193428292871" lon="7.66282313503325">
        <ele>2538.4200000000001</ele>
        <time>2025-08-14T12:37:04Z</time>
      </trkpt>
      <trkpt lat="45.898118242621422" lon="7.662737052887678">
        <ele>2537.3699999999999</ele>
        <time>2025-08-14T12:37:13Z</time>
      </trkpt>
      <trkpt lat="45.898043559864163" lon="7.662653904408217">
        <ele>2536.4099999999999</ele>
        <time>2025-08-14T12:37:22Z</time>
      </trkpt>
      <trkpt lat="45.897990753874183" lon="7.662543095648289">
        <ele>2535.3400000000001</ele>
        <time>2025-08-14T12:37:33Z</time>
      </trkpt>
      <trkpt lat="45.897978097200394" lon="7.662517363205552">
        <ele>2533.1599999999999</ele>
        <time>2025-08-14T12:41:21Z</time>
      </trkpt>
      <trkpt lat="45.897948173806071" lon="7.662511579692364">
        <ele>2533.1100000000001</ele>
        <time>2025-08-14T12:43:17Z</time>
      </trkpt>
      <trkpt lat="45.897962506860495" lon="7.662565223872662">
        <ele>2532.4899999999998</ele>
        <time>2025-08-14T12:44:24Z</time>
      </trkpt>
      <trkpt lat="45.897890673950315" lon="7.662643929943442">
        <ele>2530.4299999999998</ele>
        <time>2025-08-14T12:44:35Z</time>
      </trkpt>
      <trkpt lat="45.897804507985711" lon="7.662678631022573">
        <ele>2526.9400000000001</ele>
        <time>2025-08-14T12:44:47Z</time>
      </trkpt>
      <trkpt lat="45.897779697552323" lon="7.662576539441943">
        <ele>2523.8200000000002</ele>
        <time>2025-08-14T12:45:00Z</time>
      </trkpt>
      <trkpt lat="45.897773746401072" lon="7.662445111200213">
        <ele>2522.4699999999998</ele>
        <time>2025-08-14T12:45:10Z</time>
      </trkpt>
      <trkpt lat="45.897756898775697" lon="7.66231887973845">
        <ele>2520.0900000000001</ele>
        <time>2025-08-14T12:45:26Z</time>
      </trkpt>
      <trkpt lat="45.89777072891593" lon="7.662182254716754">
        <ele>2517.8299999999999</ele>
        <time>2025-08-14T12:45:36Z</time>
      </trkpt>
      <trkpt lat="45.897792186588049" lon="7.662047306075692">
        <ele>2516.5599999999999</ele>
        <time>2025-08-14T12:45:46Z</time>
      </trkpt>
      <trkpt lat="45.897811213508248" lon="7.661910764873028">
        <ele>2514.71</ele>
        <time>2025-08-14T12:45:57Z</time>
      </trkpt>
      <trkpt lat="45.897869383916259" lon="7.661798866465688">
        <ele>2513.5500000000002</ele>
        <time>2025-08-14T12:46:09Z</time>
      </trkpt>
      <trkpt lat="45.897874580696225" lon="7.66167582012713">
        <ele>2510.7800000000002</ele>
        <time>2025-08-14T12:46:20Z</time>
      </trkpt>
      <trkpt lat="45.897893020883203" lon="7.661548247560859">
        <ele>2508.2399999999998</ele>
        <time>2025-08-14T12:46:31Z</time>
      </trkpt>
      <trkpt lat="45.897895870730281" lon="7.661427380517125">
        <ele>2505.2399999999998</ele>
        <time>2025-08-14T12:46:43Z</time>
      </trkpt>
      <trkpt lat="45.897907773032784" lon="7.661292850971222">
        <ele>2502.4099999999999</ele>
        <time>2025-08-14T12:46:54Z</time>
      </trkpt>
      <trkpt lat="45.897936942055821" lon="7.661164356395602">
        <ele>2499.4899999999998</ele>
        <time>2025-08-14T12:47:05Z</time>
      </trkpt>
      <trkpt lat="45.897945491597056" lon="7.661039214581251">
        <ele>2496.23</ele>
        <time>2025-08-14T12:47:16Z</time>
      </trkpt>
      <trkpt lat="45.897938031703234" lon="7.660926310345531">
        <ele>2492.54</ele>
        <time>2025-08-14T12:47:31Z</time>
      </trkpt>
      <trkpt lat="45.897907186299562" lon="7.66089454293251">
        <ele>2488.75</ele>
        <time>2025-08-14T12:47:45Z</time>
      </trkpt>
      <trkpt lat="45.897820433601737" lon="7.660946007817984">
        <ele>2485.2600000000002</ele>
        <time>2025-08-14T12:47:58Z</time>
      </trkpt>
      <trkpt lat="45.897738793864846" lon="7.661011638119817">
        <ele>2481.9000000000001</ele>
        <time>2025-08-14T12:48:10Z</time>
      </trkpt>
      <trkpt lat="45.897652544081211" lon="7.661074753850699">
        <ele>2478.54</ele>
        <time>2025-08-14T12:48:21Z</time>
      </trkpt>
      <trkpt lat="45.897568473592401" lon="7.661140970885754">
        <ele>2475.4699999999998</ele>
        <time>2025-08-14T12:48:33Z</time>
      </trkpt>
      <trkpt lat="45.897475434467196" lon="7.661164356395602">
        <ele>2472.3899999999999</ele>
        <time>2025-08-14T12:48:45Z</time>
      </trkpt>
      <trkpt lat="45.897396309301257" lon="7.661140216514468">
        <ele>2469.21</ele>
        <time>2025-08-14T12:48:57Z</time>
      </trkpt>
      <trkpt lat="45.897294720634818" lon="7.661128481850028">
        <ele>2466.02</ele>
        <time>2025-08-14T12:49:09Z</time>
      </trkpt>
      <trkpt lat="45.897240657359362" lon="7.661032425239682">
        <ele>2462.9400000000001</ele>
        <time>2025-08-14T12:49:21Z</time>
      </trkpt>
      <trkpt lat="45.897168405354023" lon="7.660949528217316">
        <ele>2459.6399999999999</ele>
        <time>2025-08-14T12:49:32Z</time>
      </trkpt>
      <trkpt lat="45.897087100893259" lon="7.660881718620658">
        <ele>2457.7800000000002</ele>
        <time>2025-08-14T12:49:42Z</time>
      </trkpt>
      <trkpt lat="45.897006886079907" lon="7.660820111632347">
        <ele>2456.1999999999998</ele>
        <time>2025-08-14T12:49:52Z</time>
      </trkpt>
      <trkpt lat="45.896920217201114" lon="7.660797648131847">
        <ele>2454.0700000000002</ele>
        <time>2025-08-14T12:50:03Z</time>
      </trkpt>
      <trkpt lat="45.896834470331669" lon="7.660758420825005">
        <ele>2451.3800000000001</ele>
        <time>2025-08-14T12:50:14Z</time>
      </trkpt>
      <trkpt lat="45.896744029596448" lon="7.66076697036624">
        <ele>2447.9099999999999</ele>
        <time>2025-08-14T12:50:27Z</time>
      </trkpt>
      <trkpt lat="45.896656690165401" lon="7.660794965922833">
        <ele>2444.8200000000002</ele>
        <time>2025-08-14T12:50:40Z</time>
      </trkpt>
      <trkpt lat="45.896571697667241" lon="7.660831678658724">
        <ele>2442.77</ele>
        <time>2025-08-14T12:50:51Z</time>
      </trkpt>
      <trkpt lat="45.896516209468246" lon="7.660725060850382">
        <ele>2440.8800000000001</ele>
        <time>2025-08-14T12:51:01Z</time>
      </trkpt>
      <trkpt lat="45.896436162292957" lon="7.66079580411315">
        <ele>2440.0300000000002</ele>
        <time>2025-08-14T12:51:11Z</time>
      </trkpt>
      <trkpt lat="45.896371202543378" lon="7.660885071381927">
        <ele>2439.3499999999999</ele>
        <time>2025-08-14T12:51:21Z</time>
      </trkpt>
      <trkpt lat="45.896275481209159" lon="7.660915246233344">
        <ele>2436.54</ele>
        <time>2025-08-14T12:51:32Z</time>
      </trkpt>
      <trkpt lat="45.896185208112001" lon="7.660950450226665">
        <ele>2434.4899999999998</ele>
        <time>2025-08-14T12:51:42Z</time>
      </trkpt>
      <trkpt lat="45.896114381030202" lon="7.6609624363482">
        <ele>2433.1900000000001</ele>
        <time>2025-08-14T12:51:57Z</time>
      </trkpt>
      <trkpt lat="45.896124187856913" lon="7.66090476885438">
        <ele>2431.3899999999999</ele>
        <time>2025-08-14T12:54:51Z</time>
      </trkpt>
      <trkpt lat="45.896055875346065" lon="7.660829080268741">
        <ele>2429.5700000000002</ele>
        <time>2025-08-14T12:55:15Z</time>
      </trkpt>
      <trkpt lat="45.896008517593145" lon="7.660702848806977">
        <ele>2427.8400000000001</ele>
        <time>2025-08-14T12:55:30Z</time>
      </trkpt>
      <trkpt lat="45.895969290286303" lon="7.660583825781941">
        <ele>2425.96</ele>
        <time>2025-08-14T12:55:42Z</time>
      </trkpt>
      <trkpt lat="45.895921010524035" lon="7.66048014163971">
        <ele>2423.04</ele>
        <time>2025-08-14T12:55:57Z</time>
      </trkpt>
      <trkpt lat="45.895868958905339" lon="7.660435969009996">
        <ele>2421.1199999999999</ele>
        <time>2025-08-14T12:57:03Z</time>
      </trkpt>
      <trkpt lat="45.895865019410849" lon="7.660311246290803">
        <ele>2420.0100000000002</ele>
        <time>2025-08-14T12:57:35Z</time>
      </trkpt>
      <trkpt lat="45.895878095179796" lon="7.6601801533252">
        <ele>2418.6599999999999</ele>
        <time>2025-08-14T12:57:48Z</time>
      </trkpt>
      <trkpt lat="45.895814644172788" lon="7.660091808065772">
        <ele>2417.5900000000001</ele>
        <time>2025-08-14T12:57:59Z</time>
      </trkpt>
      <trkpt lat="45.895783212035894" lon="7.659971863031387">
        <ele>2415.8699999999999</ele>
        <time>2025-08-14T12:58:11Z</time>
      </trkpt>
      <trkpt lat="45.895771058276296" lon="7.659843116998673">
        <ele>2414.4099999999999</ele>
        <time>2025-08-14T12:58:24Z</time>
      </trkpt>
      <trkpt lat="45.895771225914359" lon="7.659716801717877">
        <ele>2413.4099999999999</ele>
        <time>2025-08-14T12:58:38Z</time>
      </trkpt>
      <trkpt lat="45.895768208429217" lon="7.659584200009704">
        <ele>2412.0700000000002</ele>
        <time>2025-08-14T12:58:50Z</time>
      </trkpt>
      <trkpt lat="45.895756809040904" lon="7.659456543624401">
        <ele>2411.3600000000001</ele>
        <time>2025-08-14T12:59:01Z</time>
      </trkpt>
      <trkpt lat="45.895746750757098" lon="7.659319499507546">
        <ele>2411.2199999999998</ele>
        <time>2025-08-14T12:59:12Z</time>
      </trkpt>
      <trkpt lat="45.895732501521707" lon="7.659189077094197">
        <ele>2410.6100000000001</ele>
        <time>2025-08-14T12:59:22Z</time>
      </trkpt>
      <trkpt lat="45.895718419924378" lon="7.659059911966324">
        <ele>2409.3800000000001</ele>
        <time>2025-08-14T12:59:32Z</time>
      </trkpt>
      <trkpt lat="45.89570140466094" lon="7.658917419612408">
        <ele>2408.8600000000001</ele>
        <time>2025-08-14T12:59:42Z</time>
      </trkpt>
      <trkpt lat="45.895693777129054" lon="7.658772077411413">
        <ele>2408.2600000000002</ele>
        <time>2025-08-14T12:59:52Z</time>
      </trkpt>
      <trkpt lat="45.895679276436567" lon="7.658637128770351">
        <ele>2408.0700000000002</ele>
        <time>2025-08-14T13:00:02Z</time>
      </trkpt>
      <trkpt lat="45.895660417154431" lon="7.658504359424114">
        <ele>2407</ele>
        <time>2025-08-14T13:00:13Z</time>
      </trkpt>
      <trkpt lat="45.895648179575801" lon="7.658426994457841">
        <ele>2405.8899999999999</ele>
        <time>2025-08-14T13:01:01Z</time>
      </trkpt>
      <trkpt lat="45.89564717374742" lon="7.658308809623122">
        <ele>2405.6500000000001</ele>
        <time>2025-08-14T13:01:12Z</time>
      </trkpt>
      <trkpt lat="45.895601324737072" lon="7.658225242048502">
        <ele>2405.48</ele>
        <time>2025-08-14T13:01:26Z</time>
      </trkpt>
      <trkpt lat="45.895592859014869" lon="7.658126670867205">
        <ele>2404.02</ele>
        <time>2025-08-14T13:01:37Z</time>
      </trkpt>
      <trkpt lat="45.895601660013199" lon="7.658006558194757">
        <ele>2402.9099999999999</ele>
        <time>2025-08-14T13:01:46Z</time>
      </trkpt>
      <trkpt lat="45.895603504031897" lon="7.657891474664211">
        <ele>2402.1700000000001</ele>
        <time>2025-08-14T13:01:56Z</time>
      </trkpt>
      <trkpt lat="45.895584896206856" lon="7.657761303707957">
        <ele>2401.6999999999998</ele>
        <time>2025-08-14T13:02:06Z</time>
      </trkpt>
      <trkpt lat="45.895576430484653" lon="7.657645465806127">
        <ele>2400.1799999999998</ele>
        <time>2025-08-14T13:02:17Z</time>
      </trkpt>
      <trkpt lat="45.895573664456606" lon="7.657524179667234">
        <ele>2399.0900000000001</ele>
        <time>2025-08-14T13:02:27Z</time>
      </trkpt>
      <trkpt lat="45.895554469898343" lon="7.657393421977758">
        <ele>2399</ele>
        <time>2025-08-14T13:02:42Z</time>
      </trkpt>
      <trkpt lat="45.895540807396173" lon="7.657262245193124">
        <ele>2397.4899999999998</ele>
        <time>2025-08-14T13:02:53Z</time>
      </trkpt>
      <trkpt lat="45.895486744120717" lon="7.657167110592127">
        <ele>2395.25</ele>
        <time>2025-08-14T13:03:03Z</time>
      </trkpt>
      <trkpt lat="45.895395800471306" lon="7.657133834436536">
        <ele>2393.1100000000001</ele>
        <time>2025-08-14T13:03:13Z</time>
      </trkpt>
      <trkpt lat="45.895331175997853" lon="7.657049763947725">
        <ele>2391.52</ele>
        <time>2025-08-14T13:03:24Z</time>
      </trkpt>
      <trkpt lat="45.895309299230576" lon="7.65692294575274">
        <ele>2390.1700000000001</ele>
        <time>2025-08-14T13:03:35Z</time>
      </trkpt>
      <trkpt lat="45.895278621464968" lon="7.656794618815184">
        <ele>2389.0700000000002</ele>
        <time>2025-08-14T13:03:46Z</time>
      </trkpt>
      <trkpt lat="45.895249117165804" lon="7.65666444785893">
        <ele>2388.0500000000002</ele>
        <time>2025-08-14T13:03:56Z</time>
      </trkpt>
      <trkpt lat="45.89522154070437" lon="7.656534109264612">
        <ele>2387.5</ele>
        <time>2025-08-14T13:04:06Z</time>
      </trkpt>
      <trkpt lat="45.895187677815557" lon="7.656396729871631">
        <ele>2386.4299999999998</ele>
        <time>2025-08-14T13:04:22Z</time>
      </trkpt>
      <trkpt lat="45.895157167688012" lon="7.656267397105694">
        <ele>2385.8699999999999</ele>
        <time>2025-08-14T13:04:32Z</time>
      </trkpt>
      <trkpt lat="45.895114839076996" lon="7.656145105138421">
        <ele>2384.9499999999998</ele>
        <time>2025-08-14T13:04:42Z</time>
      </trkpt>
      <trkpt lat="45.895055076107383" lon="7.65603362582624">
        <ele>2383.6799999999998</ele>
        <time>2025-08-14T13:04:52Z</time>
      </trkpt>
      <trkpt lat="45.895016100257635" lon="7.655917452648282">
        <ele>2382.6199999999999</ele>
        <time>2025-08-14T13:05:01Z</time>
      </trkpt>
      <trkpt lat="45.89496455155313" lon="7.65580739825964">
        <ele>2380.6799999999998</ele>
        <time>2025-08-14T13:05:12Z</time>
      </trkpt>
      <trkpt lat="45.894899005070329" lon="7.655726345255971">
        <ele>2378.9899999999998</ele>
        <time>2025-08-14T13:05:22Z</time>
      </trkpt>
      <trkpt lat="45.894853407517076" lon="7.655612099915743">
        <ele>2376.3000000000002</ele>
        <time>2025-08-14T13:05:33Z</time>
      </trkpt>
      <trkpt lat="45.894809821620584" lon="7.655505063012242">
        <ele>2372.6700000000001</ele>
        <time>2025-08-14T13:05:45Z</time>
      </trkpt>
      <trkpt lat="45.894727343693376" lon="7.655437756329775">
        <ele>2370.21</ele>
        <time>2025-08-14T13:05:56Z</time>
      </trkpt>
      <trkpt lat="45.89463178999722" lon="7.65541210770607">
        <ele>2368.9699999999998</ele>
        <time>2025-08-14T13:06:06Z</time>
      </trkpt>
      <trkpt lat="45.894577978178859" lon="7.655309932306409">
        <ele>2368.4200000000001</ele>
        <time>2025-08-14T13:06:16Z</time>
      </trkpt>
      <trkpt lat="45.894513940438628" lon="7.655218988656998">
        <ele>2366.0300000000002</ele>
        <time>2025-08-14T13:06:28Z</time>
      </trkpt>
      <trkpt lat="45.894445292651653" lon="7.655126033350825">
        <ele>2363.5500000000002</ele>
        <time>2025-08-14T13:06:39Z</time>
      </trkpt>
      <trkpt lat="45.894370693713427" lon="7.655041292309761">
        <ele>2360.8499999999999</ele>
        <time>2025-08-14T13:06:49Z</time>
      </trkpt>
      <trkpt lat="45.894307242706418" lon="7.654948001727462">
        <ele>2359.75</ele>
        <time>2025-08-14T13:06:58Z</time>
      </trkpt>
      <trkpt lat="45.894258795306087" lon="7.654839120805264">
        <ele>2358</ele>
        <time>2025-08-14T13:07:08Z</time>
      </trkpt>
      <trkpt lat="45.894207581877708" lon="7.654721774160862">
        <ele>2355.5</ele>
        <time>2025-08-14T13:07:18Z</time>
      </trkpt>
      <trkpt lat="45.89415536262095" lon="7.654604092240334">
        <ele>2354.5</ele>
        <time>2025-08-14T13:07:28Z</time>
      </trkpt>
      <trkpt lat="45.894103227183223" lon="7.654495714232326">
        <ele>2353.2600000000002</ele>
        <time>2025-08-14T13:07:41Z</time>
      </trkpt>
      <trkpt lat="45.894057545810938" lon="7.654380211606622">
        <ele>2351.1500000000001</ele>
        <time>2025-08-14T13:07:51Z</time>
      </trkpt>
      <trkpt lat="45.894007422029972" lon="7.654257332906127">
        <ele>2349.4400000000001</ele>
        <time>2025-08-14T13:08:01Z</time>
      </trkpt>
      <trkpt lat="45.89394673705101" lon="7.654154822230339">
        <ele>2348.1100000000001</ele>
        <time>2025-08-14T13:08:11Z</time>
      </trkpt>
      <trkpt lat="45.893898960202932" lon="7.65404686331749">
        <ele>2347.7600000000002</ele>
        <time>2025-08-14T13:08:20Z</time>
      </trkpt>
      <trkpt lat="45.893850009888411" lon="7.653940329328179">
        <ele>2346.3499999999999</ele>
        <time>2025-08-14T13:08:30Z</time>
      </trkpt>
      <trkpt lat="45.893813967704773" lon="7.653819629922509">
        <ele>2344.9499999999998</ele>
        <time>2025-08-14T13:08:47Z</time>
      </trkpt>
      <trkpt lat="45.893760994076729" lon="7.653719885274768">
        <ele>2342.1700000000001</ele>
        <time>2025-08-14T13:08:58Z</time>
      </trkpt>
      <trkpt lat="45.893716989085078" lon="7.653590803965926">
        <ele>2340.3400000000001</ele>
        <time>2025-08-14T13:09:10Z</time>
      </trkpt>
      <trkpt lat="45.893693268299103" lon="7.653468763455749">
        <ele>2338.0999999999999</ele>
        <time>2025-08-14T13:09:22Z</time>
      </trkpt>
      <trkpt lat="45.893696285784245" lon="7.653338508680463">
        <ele>2335.3000000000002</ele>
        <time>2025-08-14T13:09:35Z</time>
      </trkpt>
      <trkpt lat="45.893729394301772" lon="7.653208002448082">
        <ele>2332.75</ele>
        <time>2025-08-14T13:09:48Z</time>
      </trkpt>
      <trkpt lat="45.893752193078399" lon="7.653080346062779">
        <ele>2330.4000000000001</ele>
        <time>2025-08-14T13:10:00Z</time>
      </trkpt>
      <trkpt lat="45.893801227211952" lon="7.65296408906579">
        <ele>2326.4299999999998</ele>
        <time>2025-08-14T13:10:13Z</time>
      </trkpt>
      <trkpt lat="45.893816482275724" lon="7.652837606146932">
        <ele>2323.3800000000001</ele>
        <time>2025-08-14T13:10:24Z</time>
      </trkpt>
      <trkpt lat="45.893835844472051" lon="7.652710201218724">
        <ele>2320.25</ele>
        <time>2025-08-14T13:10:38Z</time>
      </trkpt>
      <trkpt lat="45.893842549994588" lon="7.652574582025409">
        <ele>2317.4899999999998</ele>
        <time>2025-08-14T13:10:52Z</time>
      </trkpt>
      <trkpt lat="45.89383140206337" lon="7.652445835992694">
        <ele>2315.5599999999999</ele>
        <time>2025-08-14T13:11:07Z</time>
      </trkpt>
      <trkpt lat="45.893807681277394" lon="7.652316000312567">
        <ele>2313.1399999999999</ele>
        <time>2025-08-14T13:11:18Z</time>
      </trkpt>
      <trkpt lat="45.893798964098096" lon="7.652174346148968">
        <ele>2311.4200000000001</ele>
        <time>2025-08-14T13:11:28Z</time>
      </trkpt>
      <trkpt lat="45.893800808116794" lon="7.652032440528274">
        <ele>2310.4200000000001</ele>
        <time>2025-08-14T13:11:37Z</time>
      </trkpt>
      <trkpt lat="45.893802316859365" lon="7.651893803849816">
        <ele>2309.8600000000001</ele>
        <time>2025-08-14T13:11:46Z</time>
      </trkpt>
      <trkpt lat="45.893821427598596" lon="7.651758687570691">
        <ele>2308.1799999999998</ele>
        <time>2025-08-14T13:11:56Z</time>
      </trkpt>
      <trkpt lat="45.893825870007277" lon="7.651617452502251">
        <ele>2306.0599999999999</ele>
        <time>2025-08-14T13:12:06Z</time>
      </trkpt>
      <trkpt lat="45.893815979361534" lon="7.651479570195079">
        <ele>2304.5599999999999</ele>
        <time>2025-08-14T13:12:15Z</time>
      </trkpt>
      <trkpt lat="45.893790498375893" lon="7.651340682059526">
        <ele>2304.0599999999999</ele>
        <time>2025-08-14T13:12:24Z</time>
      </trkpt>
      <trkpt lat="45.893773566931486" lon="7.651197938248515">
        <ele>2304.98</ele>
        <time>2025-08-14T13:12:34Z</time>
      </trkpt>
      <trkpt lat="45.893763173371553" lon="7.651061816141009">
        <ele>2304.5300000000002</ele>
        <time>2025-08-14T13:12:44Z</time>
      </trkpt>
      <trkpt lat="45.893786977976561" lon="7.65092158690095">
        <ele>2305.1399999999999</ele>
        <time>2025-08-14T13:12:54Z</time>
      </trkpt>
      <trkpt lat="45.893780943006277" lon="7.650791080668569">
        <ele>2305.3200000000002</ele>
        <time>2025-08-14T13:13:02Z</time>
      </trkpt>
      <trkpt lat="45.89373953640461" lon="7.650671890005469">
        <ele>2305.7399999999998</ele>
        <time>2025-08-14T13:13:10Z</time>
      </trkpt>
      <trkpt lat="45.893704919144511" lon="7.650548256933689">
        <ele>2305.5900000000001</ele>
        <time>2025-08-14T13:13:18Z</time>
      </trkpt>
      <trkpt lat="45.893695363774896" lon="7.650403333827853">
        <ele>2305.3699999999999</ele>
        <time>2025-08-14T13:13:27Z</time>
      </trkpt>
      <trkpt lat="45.893699219450355" lon="7.65025950036943">
        <ele>2304.75</ele>
        <time>2025-08-14T13:13:36Z</time>
      </trkpt>
      <trkpt lat="45.893693184480071" lon="7.650123462080956">
        <ele>2304.5</ele>
        <time>2025-08-14T13:13:44Z</time>
      </trkpt>
      <trkpt lat="45.893679521977901" lon="7.649975940585136">
        <ele>2304.8000000000002</ele>
        <time>2025-08-14T13:13:53Z</time>
      </trkpt>
      <trkpt lat="45.893667452037334" lon="7.649844344705343">
        <ele>2305.3099999999999</ele>
        <time>2025-08-14T13:14:01Z</time>
      </trkpt>
      <trkpt lat="45.893657309934497" lon="7.649712665006518">
        <ele>2305.5999999999999</ele>
        <time>2025-08-14T13:14:10Z</time>
      </trkpt>
      <trkpt lat="45.893666613847017" lon="7.649572268128395">
        <ele>2306.6300000000001</ele>
        <time>2025-08-14T13:14:19Z</time>
      </trkpt>
      <trkpt lat="45.893700057640672" lon="7.649440923705697">
        <ele>2307.3699999999999</ele>
        <time>2025-08-14T13:14:28Z</time>
      </trkpt>
      <trkpt lat="45.893719168379903" lon="7.649299185723066">
        <ele>2308.3800000000001</ele>
        <time>2025-08-14T13:14:38Z</time>
      </trkpt>
      <trkpt lat="45.893731992691755" lon="7.649173876270652">
        <ele>2310.2199999999998</ele>
        <time>2025-08-14T13:14:48Z</time>
      </trkpt>
      <trkpt lat="45.893769795075059" lon="7.649077400565147">
        <ele>2311.4400000000001</ele>
        <time>2025-08-14T13:15:06Z</time>
      </trkpt>
      <trkpt lat="45.893863001838326" lon="7.649037837982178">
        <ele>2310.23</ele>
        <time>2025-08-14T13:15:19Z</time>
      </trkpt>
      <trkpt lat="45.893947491422296" lon="7.649022499099374">
        <ele>2310.3200000000002</ele>
        <time>2025-08-14T13:15:29Z</time>
      </trkpt>
      <trkpt lat="45.893975403159857" lon="7.649075975641608">
        <ele>2310.7800000000002</ele>
        <time>2025-08-14T13:15:55Z</time>
      </trkpt>
      <trkpt lat="45.894035752862692" lon="7.648977739736438">
        <ele>2310.1999999999998</ele>
        <time>2025-08-14T13:16:03Z</time>
      </trkpt>
      <trkpt lat="45.894092749804258" lon="7.648894842714071">
        <ele>2309.4899999999998</ele>
        <time>2025-08-14T13:16:14Z</time>
      </trkpt>
    </trkseg>
  </trk>

</gpx>